<?xml version="1.0" encoding="UTF-8" standalone="no" ?>
<gpx xmlns="http://www.topografix.com/GPX/1/1" xmlns:xsi="http://www.w3.org/2001/XMLSchema-instance" xsi:schemaLocation="http://www.topografix.com/GPX/1/1 http://www.topografix.com/GPX/1/1/gpx.xsd" version="1.1" creator="VisuGPX - https://www.visugpx.com">
  <metadata>
    <name>rando Scean St Angel pentecôte 2012</name>
    <desc><![CDATA[trace de la randonnée de Sceau St Angel 2012
  tunnel ferrovière]]></desc>
  </metadata>
  <wpt lat="45.50694" lon="0.67361">
    <ele>211</ele>
    <name><![CDATA[carrefour]]></name>
    <desc><![CDATA[27-MAI-12 5:04:32PM]]></desc>
    <cmt><![CDATA[27-MAI-12 5:04:32PM]]></cmt>
  </wpt>
  <wpt lat="45.50564" lon="0.67534">
    <ele>210</ele>
    <name><![CDATA[garde barrière 27]]></name>
    <desc><![CDATA[27-MAI-12 5:09:13PM]]></desc>
    <cmt><![CDATA[27-MAI-12 5:09:13PM]]></cmt>
  </wpt>
  <wpt lat="45.51248" lon="0.6723">
    <ele>223</ele>
    <name><![CDATA[tunnel]]></name>
    <desc><![CDATA[27-MAI-12 4:37:24PM]]></desc>
    <cmt><![CDATA[27-MAI-12 4:37:24PM]]></cmt>
  </wpt>
  <wpt lat="45.50833" lon="0.67279">
    <ele>227</ele>
    <name><![CDATA[tunnel-1]]></name>
    <desc><![CDATA[27-MAI-12 4:56:19PM]]></desc>
    <cmt><![CDATA[27-MAI-12 4:56:19PM]]></cmt>
  </wpt>
  <trk>
    <name><![CDATA[rando Sceau St Angel]]></name>
    <trkseg>
      <trkpt lat="45.48531" lon="0.6904">
        <ele>242</ele>
        <time>2012-05-27T07:00:37Z</time>
      </trkpt>
      <trkpt lat="45.48528" lon="0.69068">
        <ele>241</ele>
        <time>2012-05-27T07:00:50Z</time>
      </trkpt>
      <trkpt lat="45.48523" lon="0.69081">
        <ele>241</ele>
        <time>2012-05-27T07:00:58Z</time>
      </trkpt>
      <trkpt lat="45.48524" lon="0.69088">
        <ele>242</ele>
        <time>2012-05-27T07:01:16Z</time>
      </trkpt>
      <trkpt lat="45.48522" lon="0.69089">
        <ele>242</ele>
        <time>2012-05-27T07:02:22Z</time>
      </trkpt>
      <trkpt lat="45.48518" lon="0.69117">
        <ele>242</ele>
        <time>2012-05-27T07:06:56Z</time>
      </trkpt>
      <trkpt lat="45.4851" lon="0.69148">
        <ele>243</ele>
        <time>2012-05-27T07:07:11Z</time>
      </trkpt>
      <trkpt lat="45.48499" lon="0.69166">
        <ele>244</ele>
        <time>2012-05-27T07:07:24Z</time>
      </trkpt>
      <trkpt lat="45.48476" lon="0.69202">
        <ele>242</ele>
        <time>2012-05-27T07:07:38Z</time>
      </trkpt>
      <trkpt lat="45.48462" lon="0.69233">
        <ele>242</ele>
        <time>2012-05-27T07:07:46Z</time>
      </trkpt>
      <trkpt lat="45.4841" lon="0.69321">
        <ele>238</ele>
        <time>2012-05-27T07:08:01Z</time>
      </trkpt>
      <trkpt lat="45.48383" lon="0.69373">
        <ele>237</ele>
        <time>2012-05-27T07:08:09Z</time>
      </trkpt>
      <trkpt lat="45.48368" lon="0.69352">
        <ele>236</ele>
        <time>2012-05-27T07:08:15Z</time>
      </trkpt>
      <trkpt lat="45.48363" lon="0.69331">
        <ele>235</ele>
        <time>2012-05-27T07:08:17Z</time>
      </trkpt>
      <trkpt lat="45.48352" lon="0.69287">
        <ele>235</ele>
        <time>2012-05-27T07:08:21Z</time>
      </trkpt>
      <trkpt lat="45.48355" lon="0.69203">
        <ele>233</ele>
        <time>2012-05-27T07:08:28Z</time>
      </trkpt>
      <trkpt lat="45.48355" lon="0.6917">
        <ele>232</ele>
        <time>2012-05-27T07:08:31Z</time>
      </trkpt>
      <trkpt lat="45.48364" lon="0.69085">
        <ele>230</ele>
        <time>2012-05-27T07:08:40Z</time>
      </trkpt>
      <trkpt lat="45.4836" lon="0.69044">
        <ele>228</ele>
        <time>2012-05-27T07:08:45Z</time>
      </trkpt>
      <trkpt lat="45.48358" lon="0.6902">
        <ele>228</ele>
        <time>2012-05-27T07:08:48Z</time>
      </trkpt>
      <trkpt lat="45.48357" lon="0.68915">
        <ele>225</ele>
        <time>2012-05-27T07:09:01Z</time>
      </trkpt>
      <trkpt lat="45.48354" lon="0.68891">
        <ele>226</ele>
        <time>2012-05-27T07:09:05Z</time>
      </trkpt>
      <trkpt lat="45.4834" lon="0.68852">
        <ele>227</ele>
        <time>2012-05-27T07:09:15Z</time>
      </trkpt>
      <trkpt lat="45.48303" lon="0.68808">
        <ele>229</ele>
        <time>2012-05-27T07:09:32Z</time>
      </trkpt>
      <trkpt lat="45.48268" lon="0.68748">
        <ele>232</ele>
        <time>2012-05-27T07:09:48Z</time>
      </trkpt>
      <trkpt lat="45.48245" lon="0.68707">
        <ele>232</ele>
        <time>2012-05-27T07:10:01Z</time>
      </trkpt>
      <trkpt lat="45.48223" lon="0.68677">
        <ele>233</ele>
        <time>2012-05-27T07:10:13Z</time>
      </trkpt>
      <trkpt lat="45.48182" lon="0.68631">
        <ele>234</ele>
        <time>2012-05-27T07:10:23Z</time>
      </trkpt>
      <trkpt lat="45.48156" lon="0.68621">
        <ele>233</ele>
        <time>2012-05-27T07:10:26Z</time>
      </trkpt>
      <trkpt lat="45.48127" lon="0.686">
        <ele>232</ele>
        <time>2012-05-27T07:10:30Z</time>
      </trkpt>
      <trkpt lat="45.48101" lon="0.68589">
        <ele>232</ele>
        <time>2012-05-27T07:10:34Z</time>
      </trkpt>
      <trkpt lat="45.48085" lon="0.68579">
        <ele>232</ele>
        <time>2012-05-27T07:10:37Z</time>
      </trkpt>
      <trkpt lat="45.48044" lon="0.68547">
        <ele>232</ele>
        <time>2012-05-27T07:10:48Z</time>
      </trkpt>
      <trkpt lat="45.47998" lon="0.68521">
        <ele>231</ele>
        <time>2012-05-27T07:10:59Z</time>
      </trkpt>
      <trkpt lat="45.4796" lon="0.68508">
        <ele>231</ele>
        <time>2012-05-27T07:11:07Z</time>
      </trkpt>
      <trkpt lat="45.47936" lon="0.68502">
        <ele>231</ele>
        <time>2012-05-27T07:11:12Z</time>
      </trkpt>
      <trkpt lat="45.47903" lon="0.68496">
        <ele>232</ele>
        <time>2012-05-27T07:11:18Z</time>
      </trkpt>
      <trkpt lat="45.47844" lon="0.68474">
        <ele>234</ele>
        <time>2012-05-27T07:11:31Z</time>
      </trkpt>
      <trkpt lat="45.4783" lon="0.68479">
        <ele>233</ele>
        <time>2012-05-27T07:11:42Z</time>
      </trkpt>
      <trkpt lat="45.47762" lon="0.68504">
        <ele>233</ele>
        <time>2012-05-27T07:12:00Z</time>
      </trkpt>
      <trkpt lat="45.47714" lon="0.68531">
        <ele>233</ele>
        <time>2012-05-27T07:12:08Z</time>
      </trkpt>
      <trkpt lat="45.47663" lon="0.68572">
        <ele>232</ele>
        <time>2012-05-27T07:12:18Z</time>
      </trkpt>
      <trkpt lat="45.47625" lon="0.68599">
        <ele>232</ele>
        <time>2012-05-27T07:12:25Z</time>
      </trkpt>
      <trkpt lat="45.47587" lon="0.6863">
        <ele>232</ele>
        <time>2012-05-27T07:12:32Z</time>
      </trkpt>
      <trkpt lat="45.47511" lon="0.68672">
        <ele>230</ele>
        <time>2012-05-27T07:12:43Z</time>
      </trkpt>
      <trkpt lat="45.47488" lon="0.68682">
        <ele>230</ele>
        <time>2012-05-27T07:12:47Z</time>
      </trkpt>
      <trkpt lat="45.47465" lon="0.68701">
        <ele>229</ele>
        <time>2012-05-27T07:12:56Z</time>
      </trkpt>
      <trkpt lat="45.47463" lon="0.68701">
        <ele>229</ele>
        <time>2012-05-27T07:12:59Z</time>
      </trkpt>
      <trkpt lat="45.47466" lon="0.68709">
        <ele>229</ele>
        <time>2012-05-27T07:13:03Z</time>
      </trkpt>
      <trkpt lat="45.47483" lon="0.68747">
        <ele>229</ele>
        <time>2012-05-27T07:13:11Z</time>
      </trkpt>
      <trkpt lat="45.47531" lon="0.68858">
        <ele>224</ele>
        <time>2012-05-27T07:13:21Z</time>
      </trkpt>
      <trkpt lat="45.47566" lon="0.6895">
        <ele>220</ele>
        <time>2012-05-27T07:13:30Z</time>
      </trkpt>
      <trkpt lat="45.47581" lon="0.68989">
        <ele>220</ele>
        <time>2012-05-27T07:13:36Z</time>
      </trkpt>
      <trkpt lat="45.47596" lon="0.69062">
        <ele>224</ele>
        <time>2012-05-27T07:13:48Z</time>
      </trkpt>
      <trkpt lat="45.47609" lon="0.69124">
        <ele>226</ele>
        <time>2012-05-27T07:14:01Z</time>
      </trkpt>
      <trkpt lat="45.47619" lon="0.69176">
        <ele>225</ele>
        <time>2012-05-27T07:14:09Z</time>
      </trkpt>
      <trkpt lat="45.47622" lon="0.69202">
        <ele>224</ele>
        <time>2012-05-27T07:14:12Z</time>
      </trkpt>
      <trkpt lat="45.47622" lon="0.69232">
        <ele>224</ele>
        <time>2012-05-27T07:14:15Z</time>
      </trkpt>
      <trkpt lat="45.47601" lon="0.69359">
        <ele>218</ele>
        <time>2012-05-27T07:14:27Z</time>
      </trkpt>
      <trkpt lat="45.47607" lon="0.69402">
        <ele>218</ele>
        <time>2012-05-27T07:14:32Z</time>
      </trkpt>
      <trkpt lat="45.47611" lon="0.69415">
        <ele>218</ele>
        <time>2012-05-27T07:14:34Z</time>
      </trkpt>
      <trkpt lat="45.47616" lon="0.69486">
        <ele>217</ele>
        <time>2012-05-27T07:14:45Z</time>
      </trkpt>
      <trkpt lat="45.47618" lon="0.69529">
        <ele>217</ele>
        <time>2012-05-27T07:14:52Z</time>
      </trkpt>
      <trkpt lat="45.47617" lon="0.69586">
        <ele>217</ele>
        <time>2012-05-27T07:15:01Z</time>
      </trkpt>
      <trkpt lat="45.47618" lon="0.69665">
        <ele>217</ele>
        <time>2012-05-27T07:15:10Z</time>
      </trkpt>
      <trkpt lat="45.47612" lon="0.69695">
        <ele>217</ele>
        <time>2012-05-27T07:15:14Z</time>
      </trkpt>
      <trkpt lat="45.47588" lon="0.69745">
        <ele>216</ele>
        <time>2012-05-27T07:15:21Z</time>
      </trkpt>
      <trkpt lat="45.47575" lon="0.69778">
        <ele>215</ele>
        <time>2012-05-27T07:15:25Z</time>
      </trkpt>
      <trkpt lat="45.47571" lon="0.69833">
        <ele>215</ele>
        <time>2012-05-27T07:15:31Z</time>
      </trkpt>
      <trkpt lat="45.47564" lon="0.69904">
        <ele>214</ele>
        <time>2012-05-27T07:15:39Z</time>
      </trkpt>
      <trkpt lat="45.47564" lon="0.69926">
        <ele>213</ele>
        <time>2012-05-27T07:15:42Z</time>
      </trkpt>
      <trkpt lat="45.47566" lon="0.6996">
        <ele>213</ele>
        <time>2012-05-27T07:15:46Z</time>
      </trkpt>
      <trkpt lat="45.4756" lon="0.6999">
        <ele>213</ele>
        <time>2012-05-27T07:15:49Z</time>
      </trkpt>
      <trkpt lat="45.4754" lon="0.70055">
        <ele>212</ele>
        <time>2012-05-27T07:15:57Z</time>
      </trkpt>
      <trkpt lat="45.4754" lon="0.70094">
        <ele>213</ele>
        <time>2012-05-27T07:16:02Z</time>
      </trkpt>
      <trkpt lat="45.47536" lon="0.70155">
        <ele>214</ele>
        <time>2012-05-27T07:16:11Z</time>
      </trkpt>
      <trkpt lat="45.47515" lon="0.70201">
        <ele>214</ele>
        <time>2012-05-27T07:16:23Z</time>
      </trkpt>
      <trkpt lat="45.47496" lon="0.70271">
        <ele>210</ele>
        <time>2012-05-27T07:16:33Z</time>
      </trkpt>
      <trkpt lat="45.4746" lon="0.70305">
        <ele>209</ele>
        <time>2012-05-27T07:16:40Z</time>
      </trkpt>
      <trkpt lat="45.47433" lon="0.70351">
        <ele>208</ele>
        <time>2012-05-27T07:16:46Z</time>
      </trkpt>
      <trkpt lat="45.47415" lon="0.70407">
        <ele>204</ele>
        <time>2012-05-27T07:16:52Z</time>
      </trkpt>
      <trkpt lat="45.47408" lon="0.70423">
        <ele>204</ele>
        <time>2012-05-27T07:16:54Z</time>
      </trkpt>
      <trkpt lat="45.47393" lon="0.70445">
        <ele>203</ele>
        <time>2012-05-27T07:16:57Z</time>
      </trkpt>
      <trkpt lat="45.4737" lon="0.70499">
        <ele>202</ele>
        <time>2012-05-27T07:17:03Z</time>
      </trkpt>
      <trkpt lat="45.47364" lon="0.70532">
        <ele>202</ele>
        <time>2012-05-27T07:17:06Z</time>
      </trkpt>
      <trkpt lat="45.47363" lon="0.7057">
        <ele>202</ele>
        <time>2012-05-27T07:17:09Z</time>
      </trkpt>
      <trkpt lat="45.47344" lon="0.70601">
        <ele>200</ele>
        <time>2012-05-27T07:17:15Z</time>
      </trkpt>
      <trkpt lat="45.47302" lon="0.70628">
        <ele>194</ele>
        <time>2012-05-27T07:17:21Z</time>
      </trkpt>
      <trkpt lat="45.47287" lon="0.7063">
        <ele>193</ele>
        <time>2012-05-27T07:17:23Z</time>
      </trkpt>
      <trkpt lat="45.47255" lon="0.70607">
        <ele>191</ele>
        <time>2012-05-27T07:17:28Z</time>
      </trkpt>
      <trkpt lat="45.47225" lon="0.70604">
        <ele>184</ele>
        <time>2012-05-27T07:17:33Z</time>
      </trkpt>
      <trkpt lat="45.47205" lon="0.70617">
        <ele>182</ele>
        <time>2012-05-27T07:17:36Z</time>
      </trkpt>
      <trkpt lat="45.47139" lon="0.70687">
        <ele>177</ele>
        <time>2012-05-27T07:17:47Z</time>
      </trkpt>
      <trkpt lat="45.47074" lon="0.70725">
        <ele>170</ele>
        <time>2012-05-27T07:17:57Z</time>
      </trkpt>
      <trkpt lat="45.47041" lon="0.70731">
        <ele>169</ele>
        <time>2012-05-27T07:18:01Z</time>
      </trkpt>
      <trkpt lat="45.46954" lon="0.70729">
        <ele>168</ele>
        <time>2012-05-27T07:18:11Z</time>
      </trkpt>
      <trkpt lat="45.46943" lon="0.70728">
        <ele>168</ele>
        <time>2012-05-27T07:18:13Z</time>
      </trkpt>
      <trkpt lat="45.46912" lon="0.70734">
        <ele>170</ele>
        <time>2012-05-27T07:18:23Z</time>
      </trkpt>
      <trkpt lat="45.46876" lon="0.70746">
        <ele>173</ele>
        <time>2012-05-27T07:18:32Z</time>
      </trkpt>
      <trkpt lat="45.46879" lon="0.70799">
        <ele>175</ele>
        <time>2012-05-27T07:18:46Z</time>
      </trkpt>
      <trkpt lat="45.46879" lon="0.70808">
        <ele>175</ele>
        <time>2012-05-27T07:18:49Z</time>
      </trkpt>
      <trkpt lat="45.46868" lon="0.70831">
        <ele>177</ele>
        <time>2012-05-27T07:19:00Z</time>
      </trkpt>
      <trkpt lat="45.46866" lon="0.70841">
        <ele>179</ele>
        <time>2012-05-27T07:19:03Z</time>
      </trkpt>
      <trkpt lat="45.46886" lon="0.70926">
        <ele>179</ele>
        <time>2012-05-27T07:19:14Z</time>
      </trkpt>
      <trkpt lat="45.46906" lon="0.70968">
        <ele>179</ele>
        <time>2012-05-27T07:19:25Z</time>
      </trkpt>
      <trkpt lat="45.46913" lon="0.70982">
        <ele>178</ele>
        <time>2012-05-27T07:19:38Z</time>
      </trkpt>
      <trkpt lat="45.46912" lon="0.71012">
        <ele>178</ele>
        <time>2012-05-27T07:19:49Z</time>
      </trkpt>
      <trkpt lat="45.46955" lon="0.71145">
        <ele>172</ele>
        <time>2012-05-27T07:20:02Z</time>
      </trkpt>
      <trkpt lat="45.46988" lon="0.71251">
        <ele>176</ele>
        <time>2012-05-27T07:20:15Z</time>
      </trkpt>
      <trkpt lat="45.47001" lon="0.71348">
        <ele>174</ele>
        <time>2012-05-27T07:20:29Z</time>
      </trkpt>
      <trkpt lat="45.47003" lon="0.71425">
        <ele>176</ele>
        <time>2012-05-27T07:20:42Z</time>
      </trkpt>
      <trkpt lat="45.47012" lon="0.71508">
        <ele>173</ele>
        <time>2012-05-27T07:20:52Z</time>
      </trkpt>
      <trkpt lat="45.46994" lon="0.71563">
        <ele>174</ele>
        <time>2012-05-27T07:21:03Z</time>
      </trkpt>
      <trkpt lat="45.46949" lon="0.71575">
        <ele>177</ele>
        <time>2012-05-27T07:21:10Z</time>
      </trkpt>
      <trkpt lat="45.46933" lon="0.71602">
        <ele>175</ele>
        <time>2012-05-27T07:21:21Z</time>
      </trkpt>
      <trkpt lat="45.46916" lon="0.71664">
        <ele>175</ele>
        <time>2012-05-27T07:21:35Z</time>
      </trkpt>
      <trkpt lat="45.46913" lon="0.71668">
        <ele>174</ele>
        <time>2012-05-27T07:21:37Z</time>
      </trkpt>
      <trkpt lat="45.46922" lon="0.71678">
        <ele>172</ele>
        <time>2012-05-27T07:21:41Z</time>
      </trkpt>
      <trkpt lat="45.46931" lon="0.7169">
        <ele>170</ele>
        <time>2012-05-27T07:21:45Z</time>
      </trkpt>
      <trkpt lat="45.46942" lon="0.7175">
        <ele>167</ele>
        <time>2012-05-27T07:21:51Z</time>
      </trkpt>
      <trkpt lat="45.46955" lon="0.71772">
        <ele>166</ele>
        <time>2012-05-27T07:21:56Z</time>
      </trkpt>
      <trkpt lat="45.46993" lon="0.71824">
        <ele>161</ele>
        <time>2012-05-27T07:22:07Z</time>
      </trkpt>
      <trkpt lat="45.47001" lon="0.71836">
        <ele>158</ele>
        <time>2012-05-27T07:22:08Z</time>
      </trkpt>
      <trkpt lat="45.47023" lon="0.71882">
        <ele>151</ele>
        <time>2012-05-27T07:22:12Z</time>
      </trkpt>
      <trkpt lat="45.47032" lon="0.71928">
        <ele>151</ele>
        <time>2012-05-27T07:22:15Z</time>
      </trkpt>
      <trkpt lat="45.47055" lon="0.72026">
        <ele>154</ele>
        <time>2012-05-27T07:22:19Z</time>
      </trkpt>
      <trkpt lat="45.47078" lon="0.72112">
        <ele>154</ele>
        <time>2012-05-27T07:22:30Z</time>
      </trkpt>
      <trkpt lat="45.47084" lon="0.72189">
        <ele>142</ele>
        <time>2012-05-27T07:22:44Z</time>
      </trkpt>
      <trkpt lat="45.47082" lon="0.72215">
        <ele>144</ele>
        <time>2012-05-27T07:23:04Z</time>
      </trkpt>
      <trkpt lat="45.47082" lon="0.72222">
        <ele>142</ele>
        <time>2012-05-27T07:23:16Z</time>
      </trkpt>
      <trkpt lat="45.47137" lon="0.72313">
        <ele>132</ele>
        <time>2012-05-27T07:23:31Z</time>
      </trkpt>
      <trkpt lat="45.4716" lon="0.72405">
        <ele>131</ele>
        <time>2012-05-27T07:24:00Z</time>
      </trkpt>
      <trkpt lat="45.47218" lon="0.72528">
        <ele>131</ele>
        <time>2012-05-27T07:24:32Z</time>
      </trkpt>
      <trkpt lat="45.47225" lon="0.72536">
        <ele>131</ele>
        <time>2012-05-27T07:24:58Z</time>
      </trkpt>
      <trkpt lat="45.47229" lon="0.72538">
        <ele>131</ele>
        <time>2012-05-27T07:25:18Z</time>
      </trkpt>
      <trkpt lat="45.4723" lon="0.72537">
        <ele>131</ele>
        <time>2012-05-27T07:25:45Z</time>
      </trkpt>
      <trkpt lat="45.4723" lon="0.72536">
        <ele>131</ele>
        <time>2012-05-27T07:25:46Z</time>
      </trkpt>
      <trkpt lat="45.47253" lon="0.72528">
        <ele>130</ele>
        <time>2012-05-27T07:25:57Z</time>
      </trkpt>
      <trkpt lat="45.47262" lon="0.72521">
        <ele>130</ele>
        <time>2012-05-27T07:26:01Z</time>
      </trkpt>
      <trkpt lat="45.4728" lon="0.72515">
        <ele>130</ele>
        <time>2012-05-27T07:26:07Z</time>
      </trkpt>
      <trkpt lat="45.47293" lon="0.72541">
        <ele>130</ele>
        <time>2012-05-27T07:26:14Z</time>
      </trkpt>
      <trkpt lat="45.47321" lon="0.72606">
        <ele>131</ele>
        <time>2012-05-27T07:26:29Z</time>
      </trkpt>
      <trkpt lat="45.47343" lon="0.72651">
        <ele>131</ele>
        <time>2012-05-27T07:26:38Z</time>
      </trkpt>
      <trkpt lat="45.47381" lon="0.7273">
        <ele>132</ele>
        <time>2012-05-27T07:26:49Z</time>
      </trkpt>
      <trkpt lat="45.4742" lon="0.72802">
        <ele>132</ele>
        <time>2012-05-27T07:27:03Z</time>
      </trkpt>
      <trkpt lat="45.47424" lon="0.72811">
        <ele>132</ele>
        <time>2012-05-27T07:27:05Z</time>
      </trkpt>
      <trkpt lat="45.47432" lon="0.72814">
        <ele>132</ele>
        <time>2012-05-27T07:27:09Z</time>
      </trkpt>
      <trkpt lat="45.47457" lon="0.72822">
        <ele>132</ele>
        <time>2012-05-27T07:27:21Z</time>
      </trkpt>
      <trkpt lat="45.47475" lon="0.72801">
        <ele>132</ele>
        <time>2012-05-27T07:27:33Z</time>
      </trkpt>
      <trkpt lat="45.47478" lon="0.72801">
        <ele>132</ele>
        <time>2012-05-27T07:27:34Z</time>
      </trkpt>
      <trkpt lat="45.47507" lon="0.72807">
        <ele>133</ele>
        <time>2012-05-27T07:27:41Z</time>
      </trkpt>
      <trkpt lat="45.47578" lon="0.72842">
        <ele>134</ele>
        <time>2012-05-27T07:27:57Z</time>
      </trkpt>
      <trkpt lat="45.47586" lon="0.72849">
        <ele>133</ele>
        <time>2012-05-27T07:27:59Z</time>
      </trkpt>
      <trkpt lat="45.47595" lon="0.72864">
        <ele>133</ele>
        <time>2012-05-27T07:28:02Z</time>
      </trkpt>
      <trkpt lat="45.47671" lon="0.72927">
        <ele>132</ele>
        <time>2012-05-27T07:28:16Z</time>
      </trkpt>
      <trkpt lat="45.47759" lon="0.72962">
        <ele>133</ele>
        <time>2012-05-27T07:28:29Z</time>
      </trkpt>
      <trkpt lat="45.47781" lon="0.72974">
        <ele>133</ele>
        <time>2012-05-27T07:28:33Z</time>
      </trkpt>
      <trkpt lat="45.47873" lon="0.73002">
        <ele>133</ele>
        <time>2012-05-27T07:28:50Z</time>
      </trkpt>
      <trkpt lat="45.47953" lon="0.73021">
        <ele>132</ele>
        <time>2012-05-27T07:29:06Z</time>
      </trkpt>
      <trkpt lat="45.47957" lon="0.73022">
        <ele>132</ele>
        <time>2012-05-27T07:29:07Z</time>
      </trkpt>
      <trkpt lat="45.47995" lon="0.73022">
        <ele>133</ele>
        <time>2012-05-27T07:29:15Z</time>
      </trkpt>
      <trkpt lat="45.48013" lon="0.73008">
        <ele>133</ele>
        <time>2012-05-27T07:29:19Z</time>
      </trkpt>
      <trkpt lat="45.48031" lon="0.72991">
        <ele>133</ele>
        <time>2012-05-27T07:29:23Z</time>
      </trkpt>
      <trkpt lat="45.48052" lon="0.72987">
        <ele>133</ele>
        <time>2012-05-27T07:29:27Z</time>
      </trkpt>
      <trkpt lat="45.48066" lon="0.72989">
        <ele>133</ele>
        <time>2012-05-27T07:29:30Z</time>
      </trkpt>
      <trkpt lat="45.4808" lon="0.72991">
        <ele>134</ele>
        <time>2012-05-27T07:29:33Z</time>
      </trkpt>
      <trkpt lat="45.48096" lon="0.72999">
        <ele>134</ele>
        <time>2012-05-27T07:29:37Z</time>
      </trkpt>
      <trkpt lat="45.48113" lon="0.73016">
        <ele>134</ele>
        <time>2012-05-27T07:29:42Z</time>
      </trkpt>
      <trkpt lat="45.48128" lon="0.73031">
        <ele>134</ele>
        <time>2012-05-27T07:29:46Z</time>
      </trkpt>
      <trkpt lat="45.48156" lon="0.73074">
        <ele>134</ele>
        <time>2012-05-27T07:29:55Z</time>
      </trkpt>
      <trkpt lat="45.48184" lon="0.73138">
        <ele>134</ele>
        <time>2012-05-27T07:30:08Z</time>
      </trkpt>
      <trkpt lat="45.48186" lon="0.73139">
        <ele>134</ele>
        <time>2012-05-27T07:30:09Z</time>
      </trkpt>
      <trkpt lat="45.48195" lon="0.73154">
        <ele>134</ele>
        <time>2012-05-27T07:30:23Z</time>
      </trkpt>
      <trkpt lat="45.48198" lon="0.73155">
        <ele>134</ele>
        <time>2012-05-27T07:30:41Z</time>
      </trkpt>
      <trkpt lat="45.48227" lon="0.73146">
        <ele>134</ele>
        <time>2012-05-27T07:30:50Z</time>
      </trkpt>
      <trkpt lat="45.48235" lon="0.73141">
        <ele>134</ele>
        <time>2012-05-27T07:30:52Z</time>
      </trkpt>
      <trkpt lat="45.48247" lon="0.7313">
        <ele>135</ele>
        <time>2012-05-27T07:30:55Z</time>
      </trkpt>
      <trkpt lat="45.48274" lon="0.7309">
        <ele>135</ele>
        <time>2012-05-27T07:31:07Z</time>
      </trkpt>
      <trkpt lat="45.48292" lon="0.73075">
        <ele>136</ele>
        <time>2012-05-27T07:31:13Z</time>
      </trkpt>
      <trkpt lat="45.48301" lon="0.73073">
        <ele>136</ele>
        <time>2012-05-27T07:31:26Z</time>
      </trkpt>
      <trkpt lat="45.48303" lon="0.73074">
        <ele>136</ele>
        <time>2012-05-27T07:31:30Z</time>
      </trkpt>
      <trkpt lat="45.48315" lon="0.73075">
        <ele>136</ele>
        <time>2012-05-27T07:31:36Z</time>
      </trkpt>
      <trkpt lat="45.48347" lon="0.73089">
        <ele>136</ele>
        <time>2012-05-27T07:31:46Z</time>
      </trkpt>
      <trkpt lat="45.48379" lon="0.73126">
        <ele>137</ele>
        <time>2012-05-27T07:32:03Z</time>
      </trkpt>
      <trkpt lat="45.48394" lon="0.73131">
        <ele>137</ele>
        <time>2012-05-27T07:32:07Z</time>
      </trkpt>
      <trkpt lat="45.4843" lon="0.73212">
        <ele>142</ele>
        <time>2012-05-27T07:32:18Z</time>
      </trkpt>
      <trkpt lat="45.48443" lon="0.73284">
        <ele>141</ele>
        <time>2012-05-27T07:32:29Z</time>
      </trkpt>
      <trkpt lat="45.48446" lon="0.73376">
        <ele>137</ele>
        <time>2012-05-27T07:32:40Z</time>
      </trkpt>
      <trkpt lat="45.48449" lon="0.73393">
        <ele>136</ele>
        <time>2012-05-27T07:32:43Z</time>
      </trkpt>
      <trkpt lat="45.48462" lon="0.73429">
        <ele>136</ele>
        <time>2012-05-27T07:32:48Z</time>
      </trkpt>
      <trkpt lat="45.48475" lon="0.73459">
        <ele>136</ele>
        <time>2012-05-27T07:32:51Z</time>
      </trkpt>
      <trkpt lat="45.48504" lon="0.735">
        <ele>137</ele>
        <time>2012-05-27T07:32:58Z</time>
      </trkpt>
      <trkpt lat="45.4853" lon="0.73507">
        <ele>140</ele>
        <time>2012-05-27T07:33:07Z</time>
      </trkpt>
      <trkpt lat="45.48567" lon="0.7348">
        <ele>142</ele>
        <time>2012-05-27T07:33:19Z</time>
      </trkpt>
      <trkpt lat="45.48609" lon="0.73448">
        <ele>145</ele>
        <time>2012-05-27T07:33:33Z</time>
      </trkpt>
      <trkpt lat="45.48665" lon="0.73405">
        <ele>147</ele>
        <time>2012-05-27T07:33:46Z</time>
      </trkpt>
      <trkpt lat="45.48727" lon="0.73371">
        <ele>150</ele>
        <time>2012-05-27T07:34:03Z</time>
      </trkpt>
      <trkpt lat="45.48739" lon="0.73369">
        <ele>150</ele>
        <time>2012-05-27T07:34:06Z</time>
      </trkpt>
      <trkpt lat="45.48757" lon="0.73366">
        <ele>153</ele>
        <time>2012-05-27T07:34:11Z</time>
      </trkpt>
      <trkpt lat="45.48757" lon="0.73418">
        <ele>151</ele>
        <time>2012-05-27T07:34:23Z</time>
      </trkpt>
      <trkpt lat="45.48753" lon="0.7345">
        <ele>152</ele>
        <time>2012-05-27T07:34:30Z</time>
      </trkpt>
      <trkpt lat="45.48753" lon="0.73462">
        <ele>152</ele>
        <time>2012-05-27T07:34:32Z</time>
      </trkpt>
      <trkpt lat="45.48763" lon="0.73483">
        <ele>152</ele>
        <time>2012-05-27T07:34:37Z</time>
      </trkpt>
      <trkpt lat="45.4878" lon="0.7349">
        <ele>153</ele>
        <time>2012-05-27T07:34:41Z</time>
      </trkpt>
      <trkpt lat="45.48794" lon="0.73522">
        <ele>153</ele>
        <time>2012-05-27T07:34:46Z</time>
      </trkpt>
      <trkpt lat="45.48811" lon="0.73547">
        <ele>153</ele>
        <time>2012-05-27T07:34:53Z</time>
      </trkpt>
      <trkpt lat="45.48818" lon="0.73551">
        <ele>153</ele>
        <time>2012-05-27T07:34:56Z</time>
      </trkpt>
      <trkpt lat="45.48855" lon="0.73571">
        <ele>156</ele>
        <time>2012-05-27T07:35:07Z</time>
      </trkpt>
      <trkpt lat="45.48903" lon="0.73573">
        <ele>157</ele>
        <time>2012-05-27T07:35:20Z</time>
      </trkpt>
      <trkpt lat="45.48945" lon="0.7358">
        <ele>158</ele>
        <time>2012-05-27T07:35:29Z</time>
      </trkpt>
      <trkpt lat="45.48962" lon="0.73529">
        <ele>158</ele>
        <time>2012-05-27T07:35:50Z</time>
      </trkpt>
      <trkpt lat="45.48966" lon="0.73525">
        <ele>158</ele>
        <time>2012-05-27T07:36:12Z</time>
      </trkpt>
      <trkpt lat="45.48965" lon="0.73516">
        <ele>158</ele>
        <time>2012-05-27T07:39:17Z</time>
      </trkpt>
      <trkpt lat="45.48995" lon="0.73513">
        <ele>159</ele>
        <time>2012-05-27T07:39:27Z</time>
      </trkpt>
      <trkpt lat="45.49015" lon="0.7354">
        <ele>159</ele>
        <time>2012-05-27T07:39:37Z</time>
      </trkpt>
      <trkpt lat="45.49036" lon="0.73546">
        <ele>159</ele>
        <time>2012-05-27T07:39:42Z</time>
      </trkpt>
      <trkpt lat="45.49104" lon="0.73519">
        <ele>161</ele>
        <time>2012-05-27T07:39:59Z</time>
      </trkpt>
      <trkpt lat="45.49119" lon="0.7351">
        <ele>161</ele>
        <time>2012-05-27T07:40:03Z</time>
      </trkpt>
      <trkpt lat="45.4918" lon="0.73472">
        <ele>165</ele>
        <time>2012-05-27T07:40:20Z</time>
      </trkpt>
      <trkpt lat="45.49221" lon="0.73455">
        <ele>165</ele>
        <time>2012-05-27T07:40:35Z</time>
      </trkpt>
      <trkpt lat="45.49255" lon="0.73421">
        <ele>166</ele>
        <time>2012-05-27T07:40:42Z</time>
      </trkpt>
      <trkpt lat="45.49288" lon="0.73406">
        <ele>168</ele>
        <time>2012-05-27T07:40:48Z</time>
      </trkpt>
      <trkpt lat="45.49319" lon="0.73402">
        <ele>167</ele>
        <time>2012-05-27T07:40:54Z</time>
      </trkpt>
      <trkpt lat="45.49361" lon="0.73397">
        <ele>169</ele>
        <time>2012-05-27T07:41:03Z</time>
      </trkpt>
      <trkpt lat="45.49421" lon="0.73399">
        <ele>173</ele>
        <time>2012-05-27T07:41:17Z</time>
      </trkpt>
      <trkpt lat="45.49455" lon="0.73399">
        <ele>174</ele>
        <time>2012-05-27T07:41:28Z</time>
      </trkpt>
      <trkpt lat="45.49464" lon="0.73394">
        <ele>175</ele>
        <time>2012-05-27T07:41:31Z</time>
      </trkpt>
      <trkpt lat="45.49489" lon="0.73373">
        <ele>176</ele>
        <time>2012-05-27T07:41:41Z</time>
      </trkpt>
      <trkpt lat="45.49521" lon="0.73357">
        <ele>179</ele>
        <time>2012-05-27T07:41:49Z</time>
      </trkpt>
      <trkpt lat="45.4954" lon="0.73359">
        <ele>180</ele>
        <time>2012-05-27T07:41:55Z</time>
      </trkpt>
      <trkpt lat="45.49579" lon="0.73398">
        <ele>180</ele>
        <time>2012-05-27T07:42:07Z</time>
      </trkpt>
      <trkpt lat="45.49584" lon="0.73397">
        <ele>182</ele>
        <time>2012-05-27T07:42:10Z</time>
      </trkpt>
      <trkpt lat="45.49598" lon="0.73378">
        <ele>183</ele>
        <time>2012-05-27T07:42:14Z</time>
      </trkpt>
      <trkpt lat="45.49628" lon="0.73358">
        <ele>183</ele>
        <time>2012-05-27T07:42:28Z</time>
      </trkpt>
      <trkpt lat="45.49634" lon="0.73359">
        <ele>184</ele>
        <time>2012-05-27T07:42:31Z</time>
      </trkpt>
      <trkpt lat="45.49639" lon="0.73363">
        <ele>184</ele>
        <time>2012-05-27T07:42:33Z</time>
      </trkpt>
      <trkpt lat="45.4966" lon="0.73388">
        <ele>185</ele>
        <time>2012-05-27T07:42:40Z</time>
      </trkpt>
      <trkpt lat="45.4967" lon="0.7339">
        <ele>186</ele>
        <time>2012-05-27T07:42:43Z</time>
      </trkpt>
      <trkpt lat="45.49706" lon="0.73399">
        <ele>185</ele>
        <time>2012-05-27T07:42:50Z</time>
      </trkpt>
      <trkpt lat="45.49744" lon="0.73392">
        <ele>185</ele>
        <time>2012-05-27T07:43:00Z</time>
      </trkpt>
      <trkpt lat="45.49792" lon="0.73388">
        <ele>186</ele>
        <time>2012-05-27T07:43:11Z</time>
      </trkpt>
      <trkpt lat="45.49832" lon="0.73371">
        <ele>186</ele>
        <time>2012-05-27T07:43:23Z</time>
      </trkpt>
      <trkpt lat="45.49869" lon="0.73333">
        <ele>188</ele>
        <time>2012-05-27T07:43:35Z</time>
      </trkpt>
      <trkpt lat="45.49882" lon="0.73333">
        <ele>188</ele>
        <time>2012-05-27T07:43:40Z</time>
      </trkpt>
      <trkpt lat="45.4991" lon="0.7333">
        <ele>190</ele>
        <time>2012-05-27T07:43:53Z</time>
      </trkpt>
      <trkpt lat="45.49915" lon="0.73325">
        <ele>190</ele>
        <time>2012-05-27T07:43:56Z</time>
      </trkpt>
      <trkpt lat="45.4994" lon="0.73335">
        <ele>194</ele>
        <time>2012-05-27T07:44:09Z</time>
      </trkpt>
      <trkpt lat="45.49954" lon="0.73316">
        <ele>196</ele>
        <time>2012-05-27T07:44:22Z</time>
      </trkpt>
      <trkpt lat="45.49962" lon="0.7322">
        <ele>201</ele>
        <time>2012-05-27T07:44:47Z</time>
      </trkpt>
      <trkpt lat="45.49982" lon="0.73123">
        <ele>207</ele>
        <time>2012-05-27T07:45:13Z</time>
      </trkpt>
      <trkpt lat="45.50001" lon="0.73032">
        <ele>220</ele>
        <time>2012-05-27T07:45:42Z</time>
      </trkpt>
      <trkpt lat="45.50008" lon="0.72975">
        <ele>221</ele>
        <time>2012-05-27T07:46:02Z</time>
      </trkpt>
      <trkpt lat="45.50033" lon="0.72884">
        <ele>225</ele>
        <time>2012-05-27T07:46:27Z</time>
      </trkpt>
      <trkpt lat="45.50045" lon="0.72843">
        <ele>226</ele>
        <time>2012-05-27T07:46:48Z</time>
      </trkpt>
      <trkpt lat="45.50063" lon="0.72822">
        <ele>229</ele>
        <time>2012-05-27T07:47:15Z</time>
      </trkpt>
      <trkpt lat="45.50074" lon="0.72809">
        <ele>230</ele>
        <time>2012-05-27T07:47:35Z</time>
      </trkpt>
      <trkpt lat="45.50098" lon="0.72784">
        <ele>241</ele>
        <time>2012-05-27T07:47:57Z</time>
      </trkpt>
      <trkpt lat="45.50101" lon="0.7276">
        <ele>240</ele>
        <time>2012-05-27T07:48:15Z</time>
      </trkpt>
      <trkpt lat="45.50123" lon="0.72725">
        <ele>243</ele>
        <time>2012-05-27T07:48:31Z</time>
      </trkpt>
      <trkpt lat="45.50157" lon="0.72702">
        <ele>246</ele>
        <time>2012-05-27T07:48:49Z</time>
      </trkpt>
      <trkpt lat="45.50171" lon="0.72696">
        <ele>253</ele>
        <time>2012-05-27T07:49:05Z</time>
      </trkpt>
      <trkpt lat="45.50194" lon="0.72665">
        <ele>254</ele>
        <time>2012-05-27T07:49:29Z</time>
      </trkpt>
      <trkpt lat="45.50224" lon="0.72654">
        <ele>256</ele>
        <time>2012-05-27T07:50:02Z</time>
      </trkpt>
      <trkpt lat="45.5024" lon="0.72648">
        <ele>257</ele>
        <time>2012-05-27T07:50:16Z</time>
      </trkpt>
      <trkpt lat="45.50258" lon="0.72617">
        <ele>260</ele>
        <time>2012-05-27T07:50:38Z</time>
      </trkpt>
      <trkpt lat="45.50264" lon="0.72603">
        <ele>260</ele>
        <time>2012-05-27T07:50:51Z</time>
      </trkpt>
      <trkpt lat="45.5029" lon="0.72565">
        <ele>258</ele>
        <time>2012-05-27T07:51:00Z</time>
      </trkpt>
      <trkpt lat="45.50321" lon="0.7253">
        <ele>256</ele>
        <time>2012-05-27T07:51:07Z</time>
      </trkpt>
      <trkpt lat="45.50365" lon="0.72457">
        <ele>249</ele>
        <time>2012-05-27T07:51:16Z</time>
      </trkpt>
      <trkpt lat="45.50383" lon="0.72445">
        <ele>249</ele>
        <time>2012-05-27T07:51:25Z</time>
      </trkpt>
      <trkpt lat="45.50403" lon="0.72427">
        <ele>248</ele>
        <time>2012-05-27T07:51:44Z</time>
      </trkpt>
      <trkpt lat="45.50447" lon="0.72373">
        <ele>251</ele>
        <time>2012-05-27T07:52:04Z</time>
      </trkpt>
      <trkpt lat="45.50479" lon="0.72321">
        <ele>255</ele>
        <time>2012-05-27T07:52:23Z</time>
      </trkpt>
      <trkpt lat="45.50521" lon="0.72272">
        <ele>261</ele>
        <time>2012-05-27T07:52:41Z</time>
      </trkpt>
      <trkpt lat="45.50533" lon="0.72238">
        <ele>263</ele>
        <time>2012-05-27T07:52:56Z</time>
      </trkpt>
      <trkpt lat="45.5054" lon="0.72159">
        <ele>263</ele>
        <time>2012-05-27T07:53:21Z</time>
      </trkpt>
      <trkpt lat="45.50545" lon="0.72142">
        <ele>264</ele>
        <time>2012-05-27T07:53:24Z</time>
      </trkpt>
      <trkpt lat="45.50571" lon="0.7206">
        <ele>265</ele>
        <time>2012-05-27T07:53:45Z</time>
      </trkpt>
      <trkpt lat="45.50592" lon="0.71989">
        <ele>267</ele>
        <time>2012-05-27T07:54:03Z</time>
      </trkpt>
      <trkpt lat="45.50611" lon="0.71944">
        <ele>268</ele>
        <time>2012-05-27T07:54:16Z</time>
      </trkpt>
      <trkpt lat="45.50642" lon="0.71908">
        <ele>271</ele>
        <time>2012-05-27T07:54:28Z</time>
      </trkpt>
      <trkpt lat="45.50676" lon="0.71869">
        <ele>275</ele>
        <time>2012-05-27T07:54:39Z</time>
      </trkpt>
      <trkpt lat="45.50735" lon="0.71795">
        <ele>278</ele>
        <time>2012-05-27T07:55:02Z</time>
      </trkpt>
      <trkpt lat="45.50776" lon="0.7174">
        <ele>281</ele>
        <time>2012-05-27T07:55:22Z</time>
      </trkpt>
      <trkpt lat="45.50811" lon="0.71671">
        <ele>281</ele>
        <time>2012-05-27T07:55:43Z</time>
      </trkpt>
      <trkpt lat="45.50817" lon="0.71652">
        <ele>280</ele>
        <time>2012-05-27T07:55:49Z</time>
      </trkpt>
      <trkpt lat="45.50843" lon="0.71608">
        <ele>283</ele>
        <time>2012-05-27T07:56:03Z</time>
      </trkpt>
      <trkpt lat="45.50872" lon="0.71525">
        <ele>283</ele>
        <time>2012-05-27T07:56:24Z</time>
      </trkpt>
      <trkpt lat="45.50894" lon="0.71481">
        <ele>282</ele>
        <time>2012-05-27T07:56:34Z</time>
      </trkpt>
      <trkpt lat="45.50902" lon="0.7145">
        <ele>281</ele>
        <time>2012-05-27T07:56:45Z</time>
      </trkpt>
      <trkpt lat="45.50922" lon="0.71423">
        <ele>282</ele>
        <time>2012-05-27T07:56:58Z</time>
      </trkpt>
      <trkpt lat="45.50926" lon="0.71417">
        <ele>282</ele>
        <time>2012-05-27T07:57:00Z</time>
      </trkpt>
      <trkpt lat="45.50932" lon="0.71393">
        <ele>280</ele>
        <time>2012-05-27T07:57:09Z</time>
      </trkpt>
      <trkpt lat="45.50936" lon="0.71385">
        <ele>280</ele>
        <time>2012-05-27T07:57:12Z</time>
      </trkpt>
      <trkpt lat="45.50943" lon="0.71373">
        <ele>279</ele>
        <time>2012-05-27T07:57:17Z</time>
      </trkpt>
      <trkpt lat="45.50968" lon="0.71317">
        <ele>275</ele>
        <time>2012-05-27T07:57:29Z</time>
      </trkpt>
      <trkpt lat="45.50998" lon="0.71226">
        <ele>272</ele>
        <time>2012-05-27T07:57:43Z</time>
      </trkpt>
      <trkpt lat="45.51013" lon="0.71177">
        <ele>276</ele>
        <time>2012-05-27T07:57:52Z</time>
      </trkpt>
      <trkpt lat="45.51067" lon="0.71092">
        <ele>280</ele>
        <time>2012-05-27T07:58:03Z</time>
      </trkpt>
      <trkpt lat="45.51096" lon="0.7103">
        <ele>282</ele>
        <time>2012-05-27T07:58:13Z</time>
      </trkpt>
      <trkpt lat="45.51106" lon="0.71002">
        <ele>282</ele>
        <time>2012-05-27T07:58:24Z</time>
      </trkpt>
      <trkpt lat="45.51117" lon="0.70988">
        <ele>280</ele>
        <time>2012-05-27T07:59:27Z</time>
      </trkpt>
      <trkpt lat="45.51117" lon="0.70987">
        <ele>280</ele>
        <time>2012-05-27T07:59:43Z</time>
      </trkpt>
      <trkpt lat="45.51179" lon="0.70875">
        <ele>278</ele>
        <time>2012-05-27T08:00:00Z</time>
      </trkpt>
      <trkpt lat="45.51224" lon="0.70787">
        <ele>274</ele>
        <time>2012-05-27T08:00:14Z</time>
      </trkpt>
      <trkpt lat="45.51273" lon="0.70719">
        <ele>277</ele>
        <time>2012-05-27T08:00:29Z</time>
      </trkpt>
      <trkpt lat="45.51287" lon="0.70694">
        <ele>277</ele>
        <time>2012-05-27T08:00:36Z</time>
      </trkpt>
      <trkpt lat="45.5127" lon="0.70671">
        <ele>275</ele>
        <time>2012-05-27T08:00:42Z</time>
      </trkpt>
      <trkpt lat="45.5121" lon="0.70607">
        <ele>269</ele>
        <time>2012-05-27T08:00:52Z</time>
      </trkpt>
      <trkpt lat="45.51201" lon="0.706">
        <ele>268</ele>
        <time>2012-05-27T08:00:54Z</time>
      </trkpt>
      <trkpt lat="45.51199" lon="0.70577">
        <ele>265</ele>
        <time>2012-05-27T08:01:02Z</time>
      </trkpt>
      <trkpt lat="45.512" lon="0.70573">
        <ele>265</ele>
        <time>2012-05-27T08:01:04Z</time>
      </trkpt>
      <trkpt lat="45.51224" lon="0.70534">
        <ele>265</ele>
        <time>2012-05-27T08:01:13Z</time>
      </trkpt>
      <trkpt lat="45.51277" lon="0.70473">
        <ele>266</ele>
        <time>2012-05-27T08:01:20Z</time>
      </trkpt>
      <trkpt lat="45.51298" lon="0.70448">
        <ele>266</ele>
        <time>2012-05-27T08:01:25Z</time>
      </trkpt>
      <trkpt lat="45.51322" lon="0.70396">
        <ele>263</ele>
        <time>2012-05-27T08:01:36Z</time>
      </trkpt>
      <trkpt lat="45.51384" lon="0.70328">
        <ele>264</ele>
        <time>2012-05-27T08:01:48Z</time>
      </trkpt>
      <trkpt lat="45.51416" lon="0.70321">
        <ele>268</ele>
        <time>2012-05-27T08:01:58Z</time>
      </trkpt>
      <trkpt lat="45.51429" lon="0.70317">
        <ele>272</ele>
        <time>2012-05-27T08:02:14Z</time>
      </trkpt>
      <trkpt lat="45.51438" lon="0.70305">
        <ele>272</ele>
        <time>2012-05-27T08:13:38Z</time>
      </trkpt>
      <trkpt lat="45.51434" lon="0.70312">
        <ele>272</ele>
        <time>2012-05-27T08:14:19Z</time>
      </trkpt>
      <trkpt lat="45.51433" lon="0.70308">
        <ele>272</ele>
        <time>2012-05-27T08:15:49Z</time>
      </trkpt>
      <trkpt lat="45.51448" lon="0.70277">
        <ele>271</ele>
        <time>2012-05-27T08:15:55Z</time>
      </trkpt>
      <trkpt lat="45.51484" lon="0.70183">
        <ele>266</ele>
        <time>2012-05-27T08:16:05Z</time>
      </trkpt>
      <trkpt lat="45.51516" lon="0.70097">
        <ele>268</ele>
        <time>2012-05-27T08:16:10Z</time>
      </trkpt>
      <trkpt lat="45.5152" lon="0.70013">
        <ele>272</ele>
        <time>2012-05-27T08:16:17Z</time>
      </trkpt>
      <trkpt lat="45.51499" lon="0.69931">
        <ele>274</ele>
        <time>2012-05-27T08:16:28Z</time>
      </trkpt>
      <trkpt lat="45.51472" lon="0.69918">
        <ele>272</ele>
        <time>2012-05-27T08:16:34Z</time>
      </trkpt>
      <trkpt lat="45.51454" lon="0.6991">
        <ele>275</ele>
        <time>2012-05-27T08:16:37Z</time>
      </trkpt>
      <trkpt lat="45.51403" lon="0.69912">
        <ele>269</ele>
        <time>2012-05-27T08:16:44Z</time>
      </trkpt>
      <trkpt lat="45.51314" lon="0.6988">
        <ele>263</ele>
        <time>2012-05-27T08:16:55Z</time>
      </trkpt>
      <trkpt lat="45.51291" lon="0.69861">
        <ele>263</ele>
        <time>2012-05-27T08:16:59Z</time>
      </trkpt>
      <trkpt lat="45.51227" lon="0.69795">
        <ele>261</ele>
        <time>2012-05-27T08:17:12Z</time>
      </trkpt>
      <trkpt lat="45.51225" lon="0.69789">
        <ele>261</ele>
        <time>2012-05-27T08:17:13Z</time>
      </trkpt>
      <trkpt lat="45.51227" lon="0.69767">
        <ele>261</ele>
        <time>2012-05-27T08:17:18Z</time>
      </trkpt>
      <trkpt lat="45.51251" lon="0.69732">
        <ele>263</ele>
        <time>2012-05-27T08:17:29Z</time>
      </trkpt>
      <trkpt lat="45.51282" lon="0.69704">
        <ele>264</ele>
        <time>2012-05-27T08:17:40Z</time>
      </trkpt>
      <trkpt lat="45.51327" lon="0.69671">
        <ele>266</ele>
        <time>2012-05-27T08:17:55Z</time>
      </trkpt>
      <trkpt lat="45.51397" lon="0.69604">
        <ele>268</ele>
        <time>2012-05-27T08:18:09Z</time>
      </trkpt>
      <trkpt lat="45.51418" lon="0.6959">
        <ele>268</ele>
        <time>2012-05-27T08:18:13Z</time>
      </trkpt>
      <trkpt lat="45.51443" lon="0.69575">
        <ele>267</ele>
        <time>2012-05-27T08:18:18Z</time>
      </trkpt>
      <trkpt lat="45.5148" lon="0.69548">
        <ele>268</ele>
        <time>2012-05-27T08:18:25Z</time>
      </trkpt>
      <trkpt lat="45.51532" lon="0.6947">
        <ele>271</ele>
        <time>2012-05-27T08:18:38Z</time>
      </trkpt>
      <trkpt lat="45.51537" lon="0.69422">
        <ele>270</ele>
        <time>2012-05-27T08:18:44Z</time>
      </trkpt>
      <trkpt lat="45.51562" lon="0.69347">
        <ele>268</ele>
        <time>2012-05-27T08:18:55Z</time>
      </trkpt>
      <trkpt lat="45.51576" lon="0.69328">
        <ele>268</ele>
        <time>2012-05-27T08:18:58Z</time>
      </trkpt>
      <trkpt lat="45.51593" lon="0.69311">
        <ele>270</ele>
        <time>2012-05-27T08:19:02Z</time>
      </trkpt>
      <trkpt lat="45.51609" lon="0.69298">
        <ele>269</ele>
        <time>2012-05-27T08:19:05Z</time>
      </trkpt>
      <trkpt lat="45.51628" lon="0.6929">
        <ele>270</ele>
        <time>2012-05-27T08:19:09Z</time>
      </trkpt>
      <trkpt lat="45.51654" lon="0.69296">
        <ele>271</ele>
        <time>2012-05-27T08:19:14Z</time>
      </trkpt>
      <trkpt lat="45.51695" lon="0.69301">
        <ele>273</ele>
        <time>2012-05-27T08:19:23Z</time>
      </trkpt>
      <trkpt lat="45.51719" lon="0.69283">
        <ele>273</ele>
        <time>2012-05-27T08:19:28Z</time>
      </trkpt>
      <trkpt lat="45.51771" lon="0.69202">
        <ele>271</ele>
        <time>2012-05-27T08:19:40Z</time>
      </trkpt>
      <trkpt lat="45.51799" lon="0.69137">
        <ele>269</ele>
        <time>2012-05-27T08:19:50Z</time>
      </trkpt>
      <trkpt lat="45.51817" lon="0.69106">
        <ele>268</ele>
        <time>2012-05-27T08:19:59Z</time>
      </trkpt>
      <trkpt lat="45.51829" lon="0.69061">
        <ele>267</ele>
        <time>2012-05-27T08:20:05Z</time>
      </trkpt>
      <trkpt lat="45.51835" lon="0.69017">
        <ele>267</ele>
        <time>2012-05-27T08:20:10Z</time>
      </trkpt>
      <trkpt lat="45.51836" lon="0.68894">
        <ele>270</ele>
        <time>2012-05-27T08:20:24Z</time>
      </trkpt>
      <trkpt lat="45.51835" lon="0.68841">
        <ele>271</ele>
        <time>2012-05-27T08:20:31Z</time>
      </trkpt>
      <trkpt lat="45.51831" lon="0.68764">
        <ele>269</ele>
        <time>2012-05-27T08:20:41Z</time>
      </trkpt>
      <trkpt lat="45.51831" lon="0.68722">
        <ele>268</ele>
        <time>2012-05-27T08:20:46Z</time>
      </trkpt>
      <trkpt lat="45.51828" lon="0.686">
        <ele>268</ele>
        <time>2012-05-27T08:20:58Z</time>
      </trkpt>
      <trkpt lat="45.51826" lon="0.68558">
        <ele>267</ele>
        <time>2012-05-27T08:21:02Z</time>
      </trkpt>
      <trkpt lat="45.5183" lon="0.68526">
        <ele>267</ele>
        <time>2012-05-27T08:21:05Z</time>
      </trkpt>
      <trkpt lat="45.51838" lon="0.68496">
        <ele>267</ele>
        <time>2012-05-27T08:21:08Z</time>
      </trkpt>
      <trkpt lat="45.51842" lon="0.68446">
        <ele>266</ele>
        <time>2012-05-27T08:21:13Z</time>
      </trkpt>
      <trkpt lat="45.51874" lon="0.68279">
        <ele>258</ele>
        <time>2012-05-27T08:21:26Z</time>
      </trkpt>
      <trkpt lat="45.51881" lon="0.68252">
        <ele>258</ele>
        <time>2012-05-27T08:21:28Z</time>
      </trkpt>
      <trkpt lat="45.5193" lon="0.68127">
        <ele>249</ele>
        <time>2012-05-27T08:21:39Z</time>
      </trkpt>
      <trkpt lat="45.51966" lon="0.68037">
        <ele>247</ele>
        <time>2012-05-27T08:21:47Z</time>
      </trkpt>
      <trkpt lat="45.5203" lon="0.67917">
        <ele>244</ele>
        <time>2012-05-27T08:21:59Z</time>
      </trkpt>
      <trkpt lat="45.52098" lon="0.67809">
        <ele>236</ele>
        <time>2012-05-27T08:22:11Z</time>
      </trkpt>
      <trkpt lat="45.52102" lon="0.67791">
        <ele>235</ele>
        <time>2012-05-27T08:22:15Z</time>
      </trkpt>
      <trkpt lat="45.52089" lon="0.67744">
        <ele>237</ele>
        <time>2012-05-27T08:22:24Z</time>
      </trkpt>
      <trkpt lat="45.52069" lon="0.67686">
        <ele>241</ele>
        <time>2012-05-27T08:22:37Z</time>
      </trkpt>
      <trkpt lat="45.52067" lon="0.67668">
        <ele>240</ele>
        <time>2012-05-27T08:22:40Z</time>
      </trkpt>
      <trkpt lat="45.52069" lon="0.67639">
        <ele>240</ele>
        <time>2012-05-27T08:22:44Z</time>
      </trkpt>
      <trkpt lat="45.52081" lon="0.67558">
        <ele>236</ele>
        <time>2012-05-27T08:22:53Z</time>
      </trkpt>
      <trkpt lat="45.52106" lon="0.67389">
        <ele>234</ele>
        <time>2012-05-27T08:23:08Z</time>
      </trkpt>
      <trkpt lat="45.52116" lon="0.6735">
        <ele>234</ele>
        <time>2012-05-27T08:23:12Z</time>
      </trkpt>
      <trkpt lat="45.52121" lon="0.6732">
        <ele>232</ele>
        <time>2012-05-27T08:23:15Z</time>
      </trkpt>
      <trkpt lat="45.52106" lon="0.67281">
        <ele>230</ele>
        <time>2012-05-27T08:23:19Z</time>
      </trkpt>
      <trkpt lat="45.52097" lon="0.67233">
        <ele>225</ele>
        <time>2012-05-27T08:23:24Z</time>
      </trkpt>
      <trkpt lat="45.52101" lon="0.67214">
        <ele>224</ele>
        <time>2012-05-27T08:23:26Z</time>
      </trkpt>
      <trkpt lat="45.52128" lon="0.67122">
        <ele>220</ele>
        <time>2012-05-27T08:23:35Z</time>
      </trkpt>
      <trkpt lat="45.52137" lon="0.6708">
        <ele>220</ele>
        <time>2012-05-27T08:23:40Z</time>
      </trkpt>
      <trkpt lat="45.52138" lon="0.67057">
        <ele>219</ele>
        <time>2012-05-27T08:23:43Z</time>
      </trkpt>
      <trkpt lat="45.52132" lon="0.67022">
        <ele>219</ele>
        <time>2012-05-27T08:23:47Z</time>
      </trkpt>
      <trkpt lat="45.52127" lon="0.67007">
        <ele>219</ele>
        <time>2012-05-27T08:23:49Z</time>
      </trkpt>
      <trkpt lat="45.52091" lon="0.66994">
        <ele>216</ele>
        <time>2012-05-27T08:23:57Z</time>
      </trkpt>
      <trkpt lat="45.52071" lon="0.6701">
        <ele>213</ele>
        <time>2012-05-27T08:24:01Z</time>
      </trkpt>
      <trkpt lat="45.52034" lon="0.67047">
        <ele>210</ele>
        <time>2012-05-27T08:24:06Z</time>
      </trkpt>
      <trkpt lat="45.52002" lon="0.67084">
        <ele>207</ele>
        <time>2012-05-27T08:24:10Z</time>
      </trkpt>
      <trkpt lat="45.5197" lon="0.671">
        <ele>209</ele>
        <time>2012-05-27T08:24:14Z</time>
      </trkpt>
      <trkpt lat="45.51903" lon="0.67027">
        <ele>201</ele>
        <time>2012-05-27T08:24:25Z</time>
      </trkpt>
      <trkpt lat="45.51879" lon="0.66957">
        <ele>196</ele>
        <time>2012-05-27T08:24:31Z</time>
      </trkpt>
      <trkpt lat="45.51865" lon="0.66871">
        <ele>193</ele>
        <time>2012-05-27T08:24:39Z</time>
      </trkpt>
      <trkpt lat="45.5185" lon="0.66859">
        <ele>193</ele>
        <time>2012-05-27T08:24:42Z</time>
      </trkpt>
      <trkpt lat="45.51843" lon="0.6685">
        <ele>193</ele>
        <time>2012-05-27T08:24:44Z</time>
      </trkpt>
      <trkpt lat="45.51844" lon="0.66815">
        <ele>192</ele>
        <time>2012-05-27T08:24:51Z</time>
      </trkpt>
      <trkpt lat="45.51845" lon="0.66812">
        <ele>192</ele>
        <time>2012-05-27T08:24:52Z</time>
      </trkpt>
      <trkpt lat="45.5187" lon="0.66781">
        <ele>192</ele>
        <time>2012-05-27T08:24:59Z</time>
      </trkpt>
      <trkpt lat="45.51935" lon="0.66677">
        <ele>191</ele>
        <time>2012-05-27T08:25:12Z</time>
      </trkpt>
      <trkpt lat="45.51969" lon="0.66625">
        <ele>189</ele>
        <time>2012-05-27T08:25:18Z</time>
      </trkpt>
      <trkpt lat="45.5201" lon="0.66581">
        <ele>187</ele>
        <time>2012-05-27T08:25:25Z</time>
      </trkpt>
      <trkpt lat="45.52027" lon="0.66569">
        <ele>188</ele>
        <time>2012-05-27T08:25:28Z</time>
      </trkpt>
      <trkpt lat="45.52066" lon="0.66509">
        <ele>188</ele>
        <time>2012-05-27T08:25:38Z</time>
      </trkpt>
      <trkpt lat="45.52068" lon="0.66504">
        <ele>188</ele>
        <time>2012-05-27T08:25:39Z</time>
      </trkpt>
      <trkpt lat="45.52056" lon="0.66505">
        <ele>188</ele>
        <time>2012-05-27T08:25:45Z</time>
      </trkpt>
      <trkpt lat="45.52008" lon="0.66534">
        <ele>188</ele>
        <time>2012-05-27T08:25:58Z</time>
      </trkpt>
      <trkpt lat="45.51966" lon="0.6655">
        <ele>188</ele>
        <time>2012-05-27T08:26:07Z</time>
      </trkpt>
      <trkpt lat="45.51928" lon="0.66553">
        <ele>189</ele>
        <time>2012-05-27T08:26:16Z</time>
      </trkpt>
      <trkpt lat="45.51928" lon="0.66531">
        <ele>190</ele>
        <time>2012-05-27T08:26:22Z</time>
      </trkpt>
      <trkpt lat="45.51943" lon="0.66483">
        <ele>191</ele>
        <time>2012-05-27T08:26:34Z</time>
      </trkpt>
      <trkpt lat="45.51956" lon="0.66441">
        <ele>191</ele>
        <time>2012-05-27T08:26:49Z</time>
      </trkpt>
      <trkpt lat="45.51962" lon="0.66429">
        <ele>191</ele>
        <time>2012-05-27T08:26:50Z</time>
      </trkpt>
      <trkpt lat="45.51976" lon="0.66396">
        <ele>188</ele>
        <time>2012-05-27T08:26:54Z</time>
      </trkpt>
      <trkpt lat="45.51991" lon="0.66365">
        <ele>186</ele>
        <time>2012-05-27T08:27:00Z</time>
      </trkpt>
      <trkpt lat="45.52017" lon="0.66293">
        <ele>171</ele>
        <time>2012-05-27T08:27:11Z</time>
      </trkpt>
      <trkpt lat="45.52022" lon="0.66285">
        <ele>170</ele>
        <time>2012-05-27T08:27:14Z</time>
      </trkpt>
      <trkpt lat="45.52018" lon="0.66263">
        <ele>168</ele>
        <time>2012-05-27T08:27:19Z</time>
      </trkpt>
      <trkpt lat="45.52002" lon="0.66259">
        <ele>167</ele>
        <time>2012-05-27T08:27:31Z</time>
      </trkpt>
      <trkpt lat="45.51962" lon="0.66252">
        <ele>176</ele>
        <time>2012-05-27T08:27:41Z</time>
      </trkpt>
      <trkpt lat="45.51925" lon="0.66233">
        <ele>171</ele>
        <time>2012-05-27T08:27:54Z</time>
      </trkpt>
      <trkpt lat="45.51889" lon="0.66204">
        <ele>176</ele>
        <time>2012-05-27T08:28:07Z</time>
      </trkpt>
      <trkpt lat="45.51887" lon="0.66201">
        <ele>176</ele>
        <time>2012-05-27T08:28:08Z</time>
      </trkpt>
      <trkpt lat="45.51873" lon="0.66185">
        <ele>177</ele>
        <time>2012-05-27T08:28:15Z</time>
      </trkpt>
      <trkpt lat="45.51871" lon="0.66174">
        <ele>176</ele>
        <time>2012-05-27T08:28:19Z</time>
      </trkpt>
      <trkpt lat="45.51854" lon="0.66144">
        <ele>170</ele>
        <time>2012-05-27T08:28:29Z</time>
      </trkpt>
      <trkpt lat="45.51852" lon="0.66137">
        <ele>169</ele>
        <time>2012-05-27T08:28:31Z</time>
      </trkpt>
      <trkpt lat="45.51847" lon="0.66112">
        <ele>168</ele>
        <time>2012-05-27T08:28:36Z</time>
      </trkpt>
      <trkpt lat="45.51846" lon="0.66052">
        <ele>161</ele>
        <time>2012-05-27T08:28:44Z</time>
      </trkpt>
      <trkpt lat="45.51845" lon="0.66">
        <ele>159</ele>
        <time>2012-05-27T08:28:49Z</time>
      </trkpt>
      <trkpt lat="45.5184" lon="0.65937">
        <ele>155</ele>
        <time>2012-05-27T08:28:56Z</time>
      </trkpt>
      <trkpt lat="45.51835" lon="0.65928">
        <ele>154</ele>
        <time>2012-05-27T08:28:57Z</time>
      </trkpt>
      <trkpt lat="45.51826" lon="0.65914">
        <ele>155</ele>
        <time>2012-05-27T08:28:59Z</time>
      </trkpt>
      <trkpt lat="45.51794" lon="0.65887">
        <ele>158</ele>
        <time>2012-05-27T08:29:05Z</time>
      </trkpt>
      <trkpt lat="45.51799" lon="0.65878">
        <ele>157</ele>
        <time>2012-05-27T08:29:08Z</time>
      </trkpt>
      <trkpt lat="45.51797" lon="0.65861">
        <ele>157</ele>
        <time>2012-05-27T08:29:18Z</time>
      </trkpt>
      <trkpt lat="45.5179" lon="0.65845">
        <ele>157</ele>
        <time>2012-05-27T08:29:25Z</time>
      </trkpt>
      <trkpt lat="45.5179" lon="0.65842">
        <ele>157</ele>
        <time>2012-05-27T08:29:27Z</time>
      </trkpt>
      <trkpt lat="45.51796" lon="0.65836">
        <ele>156</ele>
        <time>2012-05-27T08:29:29Z</time>
      </trkpt>
      <trkpt lat="45.51809" lon="0.65809">
        <ele>155</ele>
        <time>2012-05-27T08:29:35Z</time>
      </trkpt>
      <trkpt lat="45.51815" lon="0.65708">
        <ele>153</ele>
        <time>2012-05-27T08:29:46Z</time>
      </trkpt>
      <trkpt lat="45.51816" lon="0.65694">
        <ele>152</ele>
        <time>2012-05-27T08:29:48Z</time>
      </trkpt>
      <trkpt lat="45.51814" lon="0.65667">
        <ele>152</ele>
        <time>2012-05-27T08:29:52Z</time>
      </trkpt>
      <trkpt lat="45.51815" lon="0.65646">
        <ele>150</ele>
        <time>2012-05-27T08:29:55Z</time>
      </trkpt>
      <trkpt lat="45.51811" lon="0.65604">
        <ele>150</ele>
        <time>2012-05-27T08:30:02Z</time>
      </trkpt>
      <trkpt lat="45.51812" lon="0.65581">
        <ele>149</ele>
        <time>2012-05-27T08:30:05Z</time>
      </trkpt>
      <trkpt lat="45.51812" lon="0.65556">
        <ele>149</ele>
        <time>2012-05-27T08:30:08Z</time>
      </trkpt>
      <trkpt lat="45.51808" lon="0.65535">
        <ele>148</ele>
        <time>2012-05-27T08:30:11Z</time>
      </trkpt>
      <trkpt lat="45.51795" lon="0.65515">
        <ele>148</ele>
        <time>2012-05-27T08:30:15Z</time>
      </trkpt>
      <trkpt lat="45.51789" lon="0.65439">
        <ele>148</ele>
        <time>2012-05-27T08:30:29Z</time>
      </trkpt>
      <trkpt lat="45.51778" lon="0.6536">
        <ele>147</ele>
        <time>2012-05-27T08:30:43Z</time>
      </trkpt>
      <trkpt lat="45.51776" lon="0.65334">
        <ele>147</ele>
        <time>2012-05-27T08:30:48Z</time>
      </trkpt>
      <trkpt lat="45.51763" lon="0.65301">
        <ele>148</ele>
        <time>2012-05-27T08:30:55Z</time>
      </trkpt>
      <trkpt lat="45.51758" lon="0.65279">
        <ele>149</ele>
        <time>2012-05-27T08:30:58Z</time>
      </trkpt>
      <trkpt lat="45.51755" lon="0.65258">
        <ele>149</ele>
        <time>2012-05-27T08:31:01Z</time>
      </trkpt>
      <trkpt lat="45.51732" lon="0.65208">
        <ele>154</ele>
        <time>2012-05-27T08:31:07Z</time>
      </trkpt>
      <trkpt lat="45.51725" lon="0.6517">
        <ele>153</ele>
        <time>2012-05-27T08:31:12Z</time>
      </trkpt>
      <trkpt lat="45.51724" lon="0.65119">
        <ele>152</ele>
        <time>2012-05-27T08:31:20Z</time>
      </trkpt>
      <trkpt lat="45.51733" lon="0.6511">
        <ele>152</ele>
        <time>2012-05-27T08:31:29Z</time>
      </trkpt>
      <trkpt lat="45.51736" lon="0.65102">
        <ele>151</ele>
        <time>2012-05-27T08:31:33Z</time>
      </trkpt>
      <trkpt lat="45.51755" lon="0.65084">
        <ele>148</ele>
        <time>2012-05-27T08:31:41Z</time>
      </trkpt>
      <trkpt lat="45.51765" lon="0.65054">
        <ele>151</ele>
        <time>2012-05-27T08:31:46Z</time>
      </trkpt>
      <trkpt lat="45.51759" lon="0.65034">
        <ele>151</ele>
        <time>2012-05-27T08:31:51Z</time>
      </trkpt>
      <trkpt lat="45.51764" lon="0.6499">
        <ele>154</ele>
        <time>2012-05-27T08:32:00Z</time>
      </trkpt>
      <trkpt lat="45.51782" lon="0.64935">
        <ele>157</ele>
        <time>2012-05-27T08:32:08Z</time>
      </trkpt>
      <trkpt lat="45.51768" lon="0.6488">
        <ele>159</ele>
        <time>2012-05-27T08:32:20Z</time>
      </trkpt>
      <trkpt lat="45.51768" lon="0.64861">
        <ele>159</ele>
        <time>2012-05-27T08:32:23Z</time>
      </trkpt>
      <trkpt lat="45.51775" lon="0.64825">
        <ele>161</ele>
        <time>2012-05-27T08:32:28Z</time>
      </trkpt>
      <trkpt lat="45.51736" lon="0.64764">
        <ele>157</ele>
        <time>2012-05-27T08:32:40Z</time>
      </trkpt>
      <trkpt lat="45.51718" lon="0.64733">
        <ele>159</ele>
        <time>2012-05-27T08:32:51Z</time>
      </trkpt>
      <trkpt lat="45.51687" lon="0.64666">
        <ele>166</ele>
        <time>2012-05-27T08:33:07Z</time>
      </trkpt>
      <trkpt lat="45.51664" lon="0.64661">
        <ele>163</ele>
        <time>2012-05-27T08:33:15Z</time>
      </trkpt>
      <trkpt lat="45.51653" lon="0.64611">
        <ele>167</ele>
        <time>2012-05-27T08:33:27Z</time>
      </trkpt>
      <trkpt lat="45.5166" lon="0.64566">
        <ele>172</ele>
        <time>2012-05-27T08:33:40Z</time>
      </trkpt>
      <trkpt lat="45.51651" lon="0.64557">
        <ele>171</ele>
        <time>2012-05-27T08:33:50Z</time>
      </trkpt>
      <trkpt lat="45.51666" lon="0.64527">
        <ele>173</ele>
        <time>2012-05-27T08:34:14Z</time>
      </trkpt>
      <trkpt lat="45.51682" lon="0.64505">
        <ele>179</ele>
        <time>2012-05-27T08:34:29Z</time>
      </trkpt>
      <trkpt lat="45.51698" lon="0.64487">
        <ele>184</ele>
        <time>2012-05-27T08:34:44Z</time>
      </trkpt>
      <trkpt lat="45.51717" lon="0.64472">
        <ele>185</ele>
        <time>2012-05-27T08:35:00Z</time>
      </trkpt>
      <trkpt lat="45.51727" lon="0.64466">
        <ele>186</ele>
        <time>2012-05-27T08:35:14Z</time>
      </trkpt>
      <trkpt lat="45.51736" lon="0.64454">
        <ele>187</ele>
        <time>2012-05-27T08:35:23Z</time>
      </trkpt>
      <trkpt lat="45.51749" lon="0.6442">
        <ele>194</ele>
        <time>2012-05-27T08:35:42Z</time>
      </trkpt>
      <trkpt lat="45.51765" lon="0.64395">
        <ele>198</ele>
        <time>2012-05-27T08:35:57Z</time>
      </trkpt>
      <trkpt lat="45.51775" lon="0.64379">
        <ele>199</ele>
        <time>2012-05-27T08:36:10Z</time>
      </trkpt>
      <trkpt lat="45.51777" lon="0.64372">
        <ele>199</ele>
        <time>2012-05-27T08:36:19Z</time>
      </trkpt>
      <trkpt lat="45.51779" lon="0.64363">
        <ele>199</ele>
        <time>2012-05-27T08:36:22Z</time>
      </trkpt>
      <trkpt lat="45.51794" lon="0.64316">
        <ele>201</ele>
        <time>2012-05-27T08:36:35Z</time>
      </trkpt>
      <trkpt lat="45.51809" lon="0.64296">
        <ele>202</ele>
        <time>2012-05-27T08:36:42Z</time>
      </trkpt>
      <trkpt lat="45.51821" lon="0.6425">
        <ele>203</ele>
        <time>2012-05-27T08:36:53Z</time>
      </trkpt>
      <trkpt lat="45.51834" lon="0.64163">
        <ele>202</ele>
        <time>2012-05-27T08:37:05Z</time>
      </trkpt>
      <trkpt lat="45.51831" lon="0.64133">
        <ele>201</ele>
        <time>2012-05-27T08:37:09Z</time>
      </trkpt>
      <trkpt lat="45.51808" lon="0.64056">
        <ele>199</ele>
        <time>2012-05-27T08:37:19Z</time>
      </trkpt>
      <trkpt lat="45.51788" lon="0.64036">
        <ele>198</ele>
        <time>2012-05-27T08:37:24Z</time>
      </trkpt>
      <trkpt lat="45.51773" lon="0.6403">
        <ele>198</ele>
        <time>2012-05-27T08:37:32Z</time>
      </trkpt>
      <trkpt lat="45.51759" lon="0.64026">
        <ele>198</ele>
        <time>2012-05-27T08:38:19Z</time>
      </trkpt>
      <trkpt lat="45.5172" lon="0.64022">
        <ele>198</ele>
        <time>2012-05-27T08:38:26Z</time>
      </trkpt>
      <trkpt lat="45.5167" lon="0.64022">
        <ele>199</ele>
        <time>2012-05-27T08:38:35Z</time>
      </trkpt>
      <trkpt lat="45.51659" lon="0.64005">
        <ele>199</ele>
        <time>2012-05-27T08:38:39Z</time>
      </trkpt>
      <trkpt lat="45.51681" lon="0.63916">
        <ele>196</ele>
        <time>2012-05-27T08:38:51Z</time>
      </trkpt>
      <trkpt lat="45.51688" lon="0.63816">
        <ele>194</ele>
        <time>2012-05-27T08:39:02Z</time>
      </trkpt>
      <trkpt lat="45.5169" lon="0.63799">
        <ele>194</ele>
        <time>2012-05-27T08:39:04Z</time>
      </trkpt>
      <trkpt lat="45.51691" lon="0.63659">
        <ele>188</ele>
        <time>2012-05-27T08:39:19Z</time>
      </trkpt>
      <trkpt lat="45.51691" lon="0.63597">
        <ele>186</ele>
        <time>2012-05-27T08:39:26Z</time>
      </trkpt>
      <trkpt lat="45.5168" lon="0.63577">
        <ele>186</ele>
        <time>2012-05-27T08:39:32Z</time>
      </trkpt>
      <trkpt lat="45.51593" lon="0.63546">
        <ele>188</ele>
        <time>2012-05-27T08:39:48Z</time>
      </trkpt>
      <trkpt lat="45.51533" lon="0.63527">
        <ele>192</ele>
        <time>2012-05-27T08:40:02Z</time>
      </trkpt>
      <trkpt lat="45.515" lon="0.63516">
        <ele>196</ele>
        <time>2012-05-27T08:40:13Z</time>
      </trkpt>
      <trkpt lat="45.51488" lon="0.63512">
        <ele>197</ele>
        <time>2012-05-27T08:40:19Z</time>
      </trkpt>
      <trkpt lat="45.51451" lon="0.63546">
        <ele>199</ele>
        <time>2012-05-27T08:40:32Z</time>
      </trkpt>
      <trkpt lat="45.51434" lon="0.63545">
        <ele>199</ele>
        <time>2012-05-27T08:40:40Z</time>
      </trkpt>
      <trkpt lat="45.51431" lon="0.63543">
        <ele>199</ele>
        <time>2012-05-27T08:40:42Z</time>
      </trkpt>
      <trkpt lat="45.51392" lon="0.63529">
        <ele>202</ele>
        <time>2012-05-27T08:40:55Z</time>
      </trkpt>
      <trkpt lat="45.51338" lon="0.63521">
        <ele>202</ele>
        <time>2012-05-27T08:41:08Z</time>
      </trkpt>
      <trkpt lat="45.51298" lon="0.63515">
        <ele>203</ele>
        <time>2012-05-27T08:41:20Z</time>
      </trkpt>
      <trkpt lat="45.51268" lon="0.63516">
        <ele>204</ele>
        <time>2012-05-27T08:41:31Z</time>
      </trkpt>
      <trkpt lat="45.51195" lon="0.63503">
        <ele>205</ele>
        <time>2012-05-27T08:41:46Z</time>
      </trkpt>
      <trkpt lat="45.51118" lon="0.63504">
        <ele>204</ele>
        <time>2012-05-27T08:42:01Z</time>
      </trkpt>
      <trkpt lat="45.51068" lon="0.63534">
        <ele>202</ele>
        <time>2012-05-27T08:42:15Z</time>
      </trkpt>
      <trkpt lat="45.51051" lon="0.63546">
        <ele>202</ele>
        <time>2012-05-27T08:42:19Z</time>
      </trkpt>
      <trkpt lat="45.5104" lon="0.63557">
        <ele>201</ele>
        <time>2012-05-27T08:42:22Z</time>
      </trkpt>
      <trkpt lat="45.51006" lon="0.63582">
        <ele>200</ele>
        <time>2012-05-27T08:42:30Z</time>
      </trkpt>
      <trkpt lat="45.50981" lon="0.63548">
        <ele>200</ele>
        <time>2012-05-27T08:42:41Z</time>
      </trkpt>
      <trkpt lat="45.50928" lon="0.63495">
        <ele>202</ele>
        <time>2012-05-27T08:42:57Z</time>
      </trkpt>
      <trkpt lat="45.50897" lon="0.63476">
        <ele>203</ele>
        <time>2012-05-27T08:43:07Z</time>
      </trkpt>
      <trkpt lat="45.50857" lon="0.63453">
        <ele>204</ele>
        <time>2012-05-27T08:43:18Z</time>
      </trkpt>
      <trkpt lat="45.50826" lon="0.63446">
        <ele>205</ele>
        <time>2012-05-27T08:43:30Z</time>
      </trkpt>
      <trkpt lat="45.50797" lon="0.6344">
        <ele>205</ele>
        <time>2012-05-27T08:43:41Z</time>
      </trkpt>
      <trkpt lat="45.50761" lon="0.63451">
        <ele>206</ele>
        <time>2012-05-27T08:43:52Z</time>
      </trkpt>
      <trkpt lat="45.50744" lon="0.63469">
        <ele>208</ele>
        <time>2012-05-27T08:43:59Z</time>
      </trkpt>
      <trkpt lat="45.50724" lon="0.63504">
        <ele>211</ele>
        <time>2012-05-27T08:44:12Z</time>
      </trkpt>
      <trkpt lat="45.50695" lon="0.63554">
        <ele>212</ele>
        <time>2012-05-27T08:44:29Z</time>
      </trkpt>
      <trkpt lat="45.50665" lon="0.63602">
        <ele>216</ele>
        <time>2012-05-27T08:44:45Z</time>
      </trkpt>
      <trkpt lat="45.50635" lon="0.63657">
        <ele>216</ele>
        <time>2012-05-27T08:45:00Z</time>
      </trkpt>
      <trkpt lat="45.50629" lon="0.6365">
        <ele>217</ele>
        <time>2012-05-27T08:45:09Z</time>
      </trkpt>
      <trkpt lat="45.50624" lon="0.63635">
        <ele>217</ele>
        <time>2012-05-27T08:45:13Z</time>
      </trkpt>
      <trkpt lat="45.50583" lon="0.63581">
        <ele>217</ele>
        <time>2012-05-27T08:45:27Z</time>
      </trkpt>
      <trkpt lat="45.50573" lon="0.63564">
        <ele>216</ele>
        <time>2012-05-27T08:45:30Z</time>
      </trkpt>
      <trkpt lat="45.50563" lon="0.63541">
        <ele>216</ele>
        <time>2012-05-27T08:45:34Z</time>
      </trkpt>
      <trkpt lat="45.50537" lon="0.63462">
        <ele>215</ele>
        <time>2012-05-27T08:45:47Z</time>
      </trkpt>
      <trkpt lat="45.50522" lon="0.63438">
        <ele>215</ele>
        <time>2012-05-27T08:45:51Z</time>
      </trkpt>
      <trkpt lat="45.50508" lon="0.6338">
        <ele>212</ele>
        <time>2012-05-27T08:46:01Z</time>
      </trkpt>
      <trkpt lat="45.50502" lon="0.63363">
        <ele>212</ele>
        <time>2012-05-27T08:46:04Z</time>
      </trkpt>
      <trkpt lat="45.50468" lon="0.63326">
        <ele>212</ele>
        <time>2012-05-27T08:46:12Z</time>
      </trkpt>
      <trkpt lat="45.50425" lon="0.63274">
        <ele>213</ele>
        <time>2012-05-27T08:46:25Z</time>
      </trkpt>
      <trkpt lat="45.50421" lon="0.63269">
        <ele>213</ele>
        <time>2012-05-27T08:46:26Z</time>
      </trkpt>
      <trkpt lat="45.50372" lon="0.63224">
        <ele>215</ele>
        <time>2012-05-27T08:46:37Z</time>
      </trkpt>
      <trkpt lat="45.50345" lon="0.632">
        <ele>216</ele>
        <time>2012-05-27T08:46:45Z</time>
      </trkpt>
      <trkpt lat="45.50339" lon="0.63175">
        <ele>217</ele>
        <time>2012-05-27T08:46:54Z</time>
      </trkpt>
      <trkpt lat="45.50334" lon="0.6312">
        <ele>218</ele>
        <time>2012-05-27T08:47:05Z</time>
      </trkpt>
      <trkpt lat="45.50293" lon="0.63103">
        <ele>220</ele>
        <time>2012-05-27T08:47:12Z</time>
      </trkpt>
      <trkpt lat="45.50234" lon="0.63098">
        <ele>222</ele>
        <time>2012-05-27T08:47:22Z</time>
      </trkpt>
      <trkpt lat="45.50189" lon="0.63109">
        <ele>222</ele>
        <time>2012-05-27T08:47:31Z</time>
      </trkpt>
      <trkpt lat="45.50127" lon="0.63117">
        <ele>222</ele>
        <time>2012-05-27T08:47:40Z</time>
      </trkpt>
      <trkpt lat="45.50109" lon="0.63118">
        <ele>222</ele>
        <time>2012-05-27T08:47:44Z</time>
      </trkpt>
      <trkpt lat="45.50069" lon="0.63109">
        <ele>221</ele>
        <time>2012-05-27T08:47:52Z</time>
      </trkpt>
      <trkpt lat="45.50009" lon="0.63116">
        <ele>220</ele>
        <time>2012-05-27T08:48:02Z</time>
      </trkpt>
      <trkpt lat="45.50003" lon="0.63116">
        <ele>220</ele>
        <time>2012-05-27T08:48:03Z</time>
      </trkpt>
      <trkpt lat="45.49965" lon="0.63124">
        <ele>219</ele>
        <time>2012-05-27T08:48:12Z</time>
      </trkpt>
      <trkpt lat="45.49941" lon="0.63144">
        <ele>219</ele>
        <time>2012-05-27T08:48:22Z</time>
      </trkpt>
      <trkpt lat="45.49941" lon="0.63144">
        <ele>219</ele>
        <time>2012-05-27T08:48:23Z</time>
      </trkpt>
      <trkpt lat="45.49923" lon="0.63145">
        <ele>220</ele>
        <time>2012-05-27T08:48:30Z</time>
      </trkpt>
      <trkpt lat="45.49877" lon="0.63158">
        <ele>219</ele>
        <time>2012-05-27T08:48:42Z</time>
      </trkpt>
      <trkpt lat="45.4985" lon="0.6318">
        <ele>222</ele>
        <time>2012-05-27T08:48:53Z</time>
      </trkpt>
      <trkpt lat="45.49819" lon="0.63189">
        <ele>222</ele>
        <time>2012-05-27T08:49:00Z</time>
      </trkpt>
      <trkpt lat="45.49798" lon="0.6319">
        <ele>222</ele>
        <time>2012-05-27T08:49:03Z</time>
      </trkpt>
      <trkpt lat="45.49759" lon="0.63186">
        <ele>220</ele>
        <time>2012-05-27T08:49:08Z</time>
      </trkpt>
      <trkpt lat="45.49724" lon="0.63181">
        <ele>220</ele>
        <time>2012-05-27T08:49:14Z</time>
      </trkpt>
      <trkpt lat="45.49678" lon="0.63172">
        <ele>222</ele>
        <time>2012-05-27T08:49:25Z</time>
      </trkpt>
      <trkpt lat="45.49621" lon="0.63156">
        <ele>219</ele>
        <time>2012-05-27T08:49:37Z</time>
      </trkpt>
      <trkpt lat="45.49601" lon="0.63145">
        <ele>218</ele>
        <time>2012-05-27T08:49:41Z</time>
      </trkpt>
      <trkpt lat="45.49561" lon="0.6315">
        <ele>217</ele>
        <time>2012-05-27T08:49:46Z</time>
      </trkpt>
      <trkpt lat="45.49525" lon="0.63158">
        <ele>217</ele>
        <time>2012-05-27T08:49:52Z</time>
      </trkpt>
      <trkpt lat="45.49496" lon="0.63159">
        <ele>216</ele>
        <time>2012-05-27T08:49:56Z</time>
      </trkpt>
      <trkpt lat="45.49475" lon="0.63155">
        <ele>217</ele>
        <time>2012-05-27T08:49:59Z</time>
      </trkpt>
      <trkpt lat="45.49449" lon="0.6316">
        <ele>216</ele>
        <time>2012-05-27T08:50:03Z</time>
      </trkpt>
      <trkpt lat="45.49409" lon="0.63147">
        <ele>214</ele>
        <time>2012-05-27T08:50:10Z</time>
      </trkpt>
      <trkpt lat="45.4938" lon="0.63141">
        <ele>214</ele>
        <time>2012-05-27T08:50:15Z</time>
      </trkpt>
      <trkpt lat="45.49334" lon="0.63111">
        <ele>214</ele>
        <time>2012-05-27T08:50:22Z</time>
      </trkpt>
      <trkpt lat="45.4932" lon="0.63097">
        <ele>212</ele>
        <time>2012-05-27T08:50:25Z</time>
      </trkpt>
      <trkpt lat="45.49301" lon="0.63091">
        <ele>211</ele>
        <time>2012-05-27T08:50:28Z</time>
      </trkpt>
      <trkpt lat="45.49226" lon="0.63052">
        <ele>209</ele>
        <time>2012-05-27T08:50:39Z</time>
      </trkpt>
      <trkpt lat="45.49218" lon="0.63051">
        <ele>209</ele>
        <time>2012-05-27T08:50:40Z</time>
      </trkpt>
      <trkpt lat="45.49123" lon="0.63034">
        <ele>208</ele>
        <time>2012-05-27T08:50:53Z</time>
      </trkpt>
      <trkpt lat="45.49058" lon="0.63047">
        <ele>207</ele>
        <time>2012-05-27T08:51:03Z</time>
      </trkpt>
      <trkpt lat="45.49038" lon="0.63054">
        <ele>207</ele>
        <time>2012-05-27T08:51:06Z</time>
      </trkpt>
      <trkpt lat="45.49013" lon="0.63068">
        <ele>205</ele>
        <time>2012-05-27T08:51:11Z</time>
      </trkpt>
      <trkpt lat="45.49002" lon="0.6309">
        <ele>203</ele>
        <time>2012-05-27T08:51:16Z</time>
      </trkpt>
      <trkpt lat="45.48996" lon="0.63123">
        <ele>205</ele>
        <time>2012-05-27T08:51:25Z</time>
      </trkpt>
      <trkpt lat="45.48994" lon="0.63145">
        <ele>206</ele>
        <time>2012-05-27T08:51:31Z</time>
      </trkpt>
      <trkpt lat="45.48968" lon="0.63165">
        <ele>206</ele>
        <time>2012-05-27T08:51:42Z</time>
      </trkpt>
      <trkpt lat="45.48945" lon="0.63205">
        <ele>208</ele>
        <time>2012-05-27T08:51:54Z</time>
      </trkpt>
      <trkpt lat="45.48927" lon="0.63225">
        <ele>208</ele>
        <time>2012-05-27T08:52:00Z</time>
      </trkpt>
      <trkpt lat="45.48898" lon="0.63257">
        <ele>206</ele>
        <time>2012-05-27T08:52:09Z</time>
      </trkpt>
      <trkpt lat="45.48867" lon="0.63303">
        <ele>204</ele>
        <time>2012-05-27T08:52:17Z</time>
      </trkpt>
      <trkpt lat="45.48862" lon="0.63311">
        <ele>203</ele>
        <time>2012-05-27T08:52:18Z</time>
      </trkpt>
      <trkpt lat="45.48851" lon="0.63325">
        <ele>202</ele>
        <time>2012-05-27T08:52:20Z</time>
      </trkpt>
      <trkpt lat="45.48831" lon="0.6337">
        <ele>199</ele>
        <time>2012-05-27T08:52:29Z</time>
      </trkpt>
      <trkpt lat="45.48814" lon="0.63417">
        <ele>202</ele>
        <time>2012-05-27T08:52:42Z</time>
      </trkpt>
      <trkpt lat="45.48798" lon="0.63459">
        <ele>204</ele>
        <time>2012-05-27T08:52:52Z</time>
      </trkpt>
      <trkpt lat="45.48794" lon="0.63479">
        <ele>205</ele>
        <time>2012-05-27T08:52:56Z</time>
      </trkpt>
      <trkpt lat="45.4879" lon="0.63497">
        <ele>206</ele>
        <time>2012-05-27T08:53:00Z</time>
      </trkpt>
      <trkpt lat="45.48784" lon="0.63532">
        <ele>211</ele>
        <time>2012-05-27T08:53:08Z</time>
      </trkpt>
      <trkpt lat="45.48761" lon="0.63549">
        <ele>213</ele>
        <time>2012-05-27T08:53:22Z</time>
      </trkpt>
      <trkpt lat="45.48731" lon="0.63559">
        <ele>215</ele>
        <time>2012-05-27T08:53:34Z</time>
      </trkpt>
      <trkpt lat="45.48719" lon="0.63554">
        <ele>215</ele>
        <time>2012-05-27T08:53:44Z</time>
      </trkpt>
      <trkpt lat="45.48696" lon="0.63514">
        <ele>214</ele>
        <time>2012-05-27T08:53:59Z</time>
      </trkpt>
      <trkpt lat="45.4867" lon="0.63454">
        <ele>209</ele>
        <time>2012-05-27T08:54:12Z</time>
      </trkpt>
      <trkpt lat="45.48661" lon="0.63432">
        <ele>209</ele>
        <time>2012-05-27T08:54:17Z</time>
      </trkpt>
      <trkpt lat="45.48652" lon="0.63389">
        <ele>207</ele>
        <time>2012-05-27T08:54:26Z</time>
      </trkpt>
      <trkpt lat="45.48635" lon="0.63363">
        <ele>207</ele>
        <time>2012-05-27T08:54:32Z</time>
      </trkpt>
      <trkpt lat="45.48601" lon="0.63363">
        <ele>208</ele>
        <time>2012-05-27T08:54:45Z</time>
      </trkpt>
      <trkpt lat="45.48592" lon="0.63356">
        <ele>209</ele>
        <time>2012-05-27T08:55:06Z</time>
      </trkpt>
      <trkpt lat="45.48588" lon="0.63353">
        <ele>209</ele>
        <time>2012-05-27T08:55:27Z</time>
      </trkpt>
      <trkpt lat="45.48587" lon="0.63354">
        <ele>209</ele>
        <time>2012-05-27T08:55:37Z</time>
      </trkpt>
      <trkpt lat="45.48547" lon="0.63397">
        <ele>210</ele>
        <time>2012-05-27T08:55:49Z</time>
      </trkpt>
      <trkpt lat="45.48505" lon="0.63426">
        <ele>207</ele>
        <time>2012-05-27T08:55:54Z</time>
      </trkpt>
      <trkpt lat="45.48439" lon="0.63459">
        <ele>201</ele>
        <time>2012-05-27T08:56:01Z</time>
      </trkpt>
      <trkpt lat="45.48358" lon="0.63512">
        <ele>194</ele>
        <time>2012-05-27T08:56:11Z</time>
      </trkpt>
      <trkpt lat="45.48319" lon="0.63549">
        <ele>191</ele>
        <time>2012-05-27T08:56:23Z</time>
      </trkpt>
      <trkpt lat="45.48312" lon="0.63555">
        <ele>191</ele>
        <time>2012-05-27T08:56:34Z</time>
      </trkpt>
      <trkpt lat="45.48268" lon="0.63572">
        <ele>189</ele>
        <time>2012-05-27T08:56:45Z</time>
      </trkpt>
      <trkpt lat="45.48174" lon="0.63577">
        <ele>183</ele>
        <time>2012-05-27T08:57:01Z</time>
      </trkpt>
      <trkpt lat="45.48159" lon="0.63576">
        <ele>182</ele>
        <time>2012-05-27T08:57:03Z</time>
      </trkpt>
      <trkpt lat="45.48125" lon="0.63568">
        <ele>182</ele>
        <time>2012-05-27T08:57:08Z</time>
      </trkpt>
      <trkpt lat="45.4809" lon="0.63582">
        <ele>181</ele>
        <time>2012-05-27T08:57:14Z</time>
      </trkpt>
      <trkpt lat="45.48068" lon="0.63625">
        <ele>182</ele>
        <time>2012-05-27T08:57:25Z</time>
      </trkpt>
      <trkpt lat="45.48069" lon="0.63641">
        <ele>183</ele>
        <time>2012-05-27T08:57:29Z</time>
      </trkpt>
      <trkpt lat="45.4804" lon="0.63704">
        <ele>188</ele>
        <time>2012-05-27T08:57:43Z</time>
      </trkpt>
      <trkpt lat="45.48018" lon="0.63781">
        <ele>193</ele>
        <time>2012-05-27T08:58:00Z</time>
      </trkpt>
      <trkpt lat="45.48019" lon="0.63832">
        <ele>193</ele>
        <time>2012-05-27T08:58:11Z</time>
      </trkpt>
      <trkpt lat="45.48024" lon="0.63846">
        <ele>196</ele>
        <time>2012-05-27T08:58:16Z</time>
      </trkpt>
      <trkpt lat="45.48025" lon="0.63856">
        <ele>196</ele>
        <time>2012-05-27T08:58:21Z</time>
      </trkpt>
      <trkpt lat="45.48023" lon="0.63867">
        <ele>196</ele>
        <time>2012-05-27T08:58:25Z</time>
      </trkpt>
      <trkpt lat="45.48024" lon="0.63884">
        <ele>197</ele>
        <time>2012-05-27T08:58:30Z</time>
      </trkpt>
      <trkpt lat="45.48" lon="0.6393">
        <ele>193</ele>
        <time>2012-05-27T08:58:42Z</time>
      </trkpt>
      <trkpt lat="45.47994" lon="0.63994">
        <ele>196</ele>
        <time>2012-05-27T08:58:53Z</time>
      </trkpt>
      <trkpt lat="45.48" lon="0.64068">
        <ele>201</ele>
        <time>2012-05-27T08:59:07Z</time>
      </trkpt>
      <trkpt lat="45.48001" lon="0.64107">
        <ele>201</ele>
        <time>2012-05-27T08:59:12Z</time>
      </trkpt>
      <trkpt lat="45.48001" lon="0.64126">
        <ele>201</ele>
        <time>2012-05-27T08:59:14Z</time>
      </trkpt>
      <trkpt lat="45.47988" lon="0.64204">
        <ele>197</ele>
        <time>2012-05-27T08:59:26Z</time>
      </trkpt>
      <trkpt lat="45.47986" lon="0.64261">
        <ele>201</ele>
        <time>2012-05-27T08:59:38Z</time>
      </trkpt>
      <trkpt lat="45.47973" lon="0.64322">
        <ele>200</ele>
        <time>2012-05-27T08:59:51Z</time>
      </trkpt>
      <trkpt lat="45.47955" lon="0.64402">
        <ele>201</ele>
        <time>2012-05-27T09:00:02Z</time>
      </trkpt>
      <trkpt lat="45.47952" lon="0.64411">
        <ele>201</ele>
        <time>2012-05-27T09:00:03Z</time>
      </trkpt>
      <trkpt lat="45.47949" lon="0.64491">
        <ele>201</ele>
        <time>2012-05-27T09:00:14Z</time>
      </trkpt>
      <trkpt lat="45.47947" lon="0.64556">
        <ele>202</ele>
        <time>2012-05-27T09:00:28Z</time>
      </trkpt>
      <trkpt lat="45.47946" lon="0.64622">
        <ele>203</ele>
        <time>2012-05-27T09:00:41Z</time>
      </trkpt>
      <trkpt lat="45.47929" lon="0.6468">
        <ele>200</ele>
        <time>2012-05-27T09:00:51Z</time>
      </trkpt>
      <trkpt lat="45.47926" lon="0.64684">
        <ele>200</ele>
        <time>2012-05-27T09:00:52Z</time>
      </trkpt>
      <trkpt lat="45.47917" lon="0.647">
        <ele>195</ele>
        <time>2012-05-27T09:00:55Z</time>
      </trkpt>
      <trkpt lat="45.47903" lon="0.64721">
        <ele>194</ele>
        <time>2012-05-27T09:00:58Z</time>
      </trkpt>
      <trkpt lat="45.47873" lon="0.64766">
        <ele>193</ele>
        <time>2012-05-27T09:01:04Z</time>
      </trkpt>
      <trkpt lat="45.47849" lon="0.64792">
        <ele>192</ele>
        <time>2012-05-27T09:01:08Z</time>
      </trkpt>
      <trkpt lat="45.47777" lon="0.64862">
        <ele>190</ele>
        <time>2012-05-27T09:01:17Z</time>
      </trkpt>
      <trkpt lat="45.47752" lon="0.64888">
        <ele>190</ele>
        <time>2012-05-27T09:01:21Z</time>
      </trkpt>
      <trkpt lat="45.47733" lon="0.64928">
        <ele>193</ele>
        <time>2012-05-27T09:01:27Z</time>
      </trkpt>
      <trkpt lat="45.47706" lon="0.65042">
        <ele>197</ele>
        <time>2012-05-27T09:01:45Z</time>
      </trkpt>
      <trkpt lat="45.47705" lon="0.65142">
        <ele>199</ele>
        <time>2012-05-27T09:02:00Z</time>
      </trkpt>
      <trkpt lat="45.47715" lon="0.65215">
        <ele>202</ele>
        <time>2012-05-27T09:02:11Z</time>
      </trkpt>
      <trkpt lat="45.47715" lon="0.65267">
        <ele>204</ele>
        <time>2012-05-27T09:02:22Z</time>
      </trkpt>
      <trkpt lat="45.47716" lon="0.65286">
        <ele>204</ele>
        <time>2012-05-27T09:02:27Z</time>
      </trkpt>
      <trkpt lat="45.47712" lon="0.65311">
        <ele>205</ele>
        <time>2012-05-27T09:02:33Z</time>
      </trkpt>
      <trkpt lat="45.47706" lon="0.65341">
        <ele>204</ele>
        <time>2012-05-27T09:02:45Z</time>
      </trkpt>
      <trkpt lat="45.47688" lon="0.65362">
        <ele>204</ele>
        <time>2012-05-27T09:02:56Z</time>
      </trkpt>
      <trkpt lat="45.47666" lon="0.65379">
        <ele>208</ele>
        <time>2012-05-27T09:02:59Z</time>
      </trkpt>
      <trkpt lat="45.47654" lon="0.65465">
        <ele>205</ele>
        <time>2012-05-27T09:03:07Z</time>
      </trkpt>
      <trkpt lat="45.47643" lon="0.65496">
        <ele>205</ele>
        <time>2012-05-27T09:03:11Z</time>
      </trkpt>
      <trkpt lat="45.47621" lon="0.65529">
        <ele>208</ele>
        <time>2012-05-27T09:03:22Z</time>
      </trkpt>
      <trkpt lat="45.47605" lon="0.65561">
        <ele>208</ele>
        <time>2012-05-27T09:03:33Z</time>
      </trkpt>
      <trkpt lat="45.47594" lon="0.65614">
        <ele>211</ele>
        <time>2012-05-27T09:03:47Z</time>
      </trkpt>
      <trkpt lat="45.47579" lon="0.65668">
        <ele>214</ele>
        <time>2012-05-27T09:03:59Z</time>
      </trkpt>
      <trkpt lat="45.47577" lon="0.65683">
        <ele>215</ele>
        <time>2012-05-27T09:04:02Z</time>
      </trkpt>
      <trkpt lat="45.47566" lon="0.65701">
        <ele>216</ele>
        <time>2012-05-27T09:04:09Z</time>
      </trkpt>
      <trkpt lat="45.47574" lon="0.65732">
        <ele>218</ele>
        <time>2012-05-27T09:04:23Z</time>
      </trkpt>
      <trkpt lat="45.47573" lon="0.65726">
        <ele>217</ele>
        <time>2012-05-27T09:04:37Z</time>
      </trkpt>
      <trkpt lat="45.47569" lon="0.65719">
        <ele>217</ele>
        <time>2012-05-27T09:04:49Z</time>
      </trkpt>
      <trkpt lat="45.47457" lon="0.65724">
        <ele>218</ele>
        <time>2012-05-27T09:05:05Z</time>
      </trkpt>
      <trkpt lat="45.4744" lon="0.65728">
        <ele>218</ele>
        <time>2012-05-27T09:05:15Z</time>
      </trkpt>
      <trkpt lat="45.474" lon="0.65715">
        <ele>221</ele>
        <time>2012-05-27T09:05:39Z</time>
      </trkpt>
      <trkpt lat="45.47398" lon="0.65711">
        <ele>221</ele>
        <time>2012-05-27T09:05:41Z</time>
      </trkpt>
      <trkpt lat="45.4739" lon="0.6571">
        <ele>222</ele>
        <time>2012-05-27T09:05:44Z</time>
      </trkpt>
      <trkpt lat="45.4735" lon="0.65709">
        <ele>223</ele>
        <time>2012-05-27T09:06:01Z</time>
      </trkpt>
      <trkpt lat="45.47335" lon="0.6571">
        <ele>224</ele>
        <time>2012-05-27T09:06:05Z</time>
      </trkpt>
      <trkpt lat="45.473" lon="0.65717">
        <ele>228</ele>
        <time>2012-05-27T09:06:18Z</time>
      </trkpt>
      <trkpt lat="45.47295" lon="0.65717">
        <ele>228</ele>
        <time>2012-05-27T09:06:19Z</time>
      </trkpt>
      <trkpt lat="45.4727" lon="0.65725">
        <ele>228</ele>
        <time>2012-05-27T09:06:26Z</time>
      </trkpt>
      <trkpt lat="45.47249" lon="0.65766">
        <ele>227</ele>
        <time>2012-05-27T09:06:38Z</time>
      </trkpt>
      <trkpt lat="45.47249" lon="0.65812">
        <ele>226</ele>
        <time>2012-05-27T09:06:48Z</time>
      </trkpt>
      <trkpt lat="45.47256" lon="0.65874">
        <ele>227</ele>
        <time>2012-05-27T09:06:58Z</time>
      </trkpt>
      <trkpt lat="45.47257" lon="0.65896">
        <ele>227</ele>
        <time>2012-05-27T09:07:01Z</time>
      </trkpt>
      <trkpt lat="45.47272" lon="0.6597">
        <ele>226</ele>
        <time>2012-05-27T09:07:11Z</time>
      </trkpt>
      <trkpt lat="45.47282" lon="0.6605">
        <ele>226</ele>
        <time>2012-05-27T09:07:23Z</time>
      </trkpt>
      <trkpt lat="45.47289" lon="0.66095">
        <ele>225</ele>
        <time>2012-05-27T09:07:30Z</time>
      </trkpt>
      <trkpt lat="45.47307" lon="0.66177">
        <ele>222</ele>
        <time>2012-05-27T09:07:43Z</time>
      </trkpt>
      <trkpt lat="45.47316" lon="0.66227">
        <ele>222</ele>
        <time>2012-05-27T09:07:59Z</time>
      </trkpt>
      <trkpt lat="45.47316" lon="0.66237">
        <ele>222</ele>
        <time>2012-05-27T09:08:13Z</time>
      </trkpt>
      <trkpt lat="45.47324" lon="0.66282">
        <ele>221</ele>
        <time>2012-05-27T09:08:22Z</time>
      </trkpt>
      <trkpt lat="45.4733" lon="0.66332">
        <ele>221</ele>
        <time>2012-05-27T09:08:29Z</time>
      </trkpt>
      <trkpt lat="45.47348" lon="0.6641">
        <ele>222</ele>
        <time>2012-05-27T09:08:42Z</time>
      </trkpt>
      <trkpt lat="45.4735" lon="0.66416">
        <ele>222</ele>
        <time>2012-05-27T09:08:43Z</time>
      </trkpt>
      <trkpt lat="45.47381" lon="0.6651">
        <ele>221</ele>
        <time>2012-05-27T09:08:57Z</time>
      </trkpt>
      <trkpt lat="45.47396" lon="0.66569">
        <ele>219</ele>
        <time>2012-05-27T09:09:08Z</time>
      </trkpt>
      <trkpt lat="45.47363" lon="0.66651">
        <ele>219</ele>
        <time>2012-05-27T09:09:19Z</time>
      </trkpt>
      <trkpt lat="45.47329" lon="0.6669">
        <ele>218</ele>
        <time>2012-05-27T09:09:25Z</time>
      </trkpt>
      <trkpt lat="45.47306" lon="0.66713">
        <ele>218</ele>
        <time>2012-05-27T09:09:29Z</time>
      </trkpt>
      <trkpt lat="45.47269" lon="0.66768">
        <ele>216</ele>
        <time>2012-05-27T09:09:35Z</time>
      </trkpt>
      <trkpt lat="45.47261" lon="0.66781">
        <ele>216</ele>
        <time>2012-05-27T09:09:37Z</time>
      </trkpt>
      <trkpt lat="45.47244" lon="0.6682">
        <ele>214</ele>
        <time>2012-05-27T09:09:41Z</time>
      </trkpt>
      <trkpt lat="45.47208" lon="0.66874">
        <ele>213</ele>
        <time>2012-05-27T09:09:50Z</time>
      </trkpt>
      <trkpt lat="45.47172" lon="0.6697">
        <ele>211</ele>
        <time>2012-05-27T09:10:03Z</time>
      </trkpt>
      <trkpt lat="45.4714" lon="0.67055">
        <ele>209</ele>
        <time>2012-05-27T09:10:15Z</time>
      </trkpt>
      <trkpt lat="45.47119" lon="0.67104">
        <ele>207</ele>
        <time>2012-05-27T09:10:21Z</time>
      </trkpt>
      <trkpt lat="45.47085" lon="0.67148">
        <ele>206</ele>
        <time>2012-05-27T09:10:33Z</time>
      </trkpt>
      <trkpt lat="45.47068" lon="0.67192">
        <ele>207</ele>
        <time>2012-05-27T09:10:44Z</time>
      </trkpt>
      <trkpt lat="45.47051" lon="0.67238">
        <ele>208</ele>
        <time>2012-05-27T09:10:54Z</time>
      </trkpt>
      <trkpt lat="45.47024" lon="0.67286">
        <ele>212</ele>
        <time>2012-05-27T09:11:04Z</time>
      </trkpt>
      <trkpt lat="45.46998" lon="0.67355">
        <ele>217</ele>
        <time>2012-05-27T09:11:21Z</time>
      </trkpt>
      <trkpt lat="45.46968" lon="0.67404">
        <ele>217</ele>
        <time>2012-05-27T09:11:33Z</time>
      </trkpt>
      <trkpt lat="45.46944" lon="0.67436">
        <ele>220</ele>
        <time>2012-05-27T09:11:44Z</time>
      </trkpt>
      <trkpt lat="45.46906" lon="0.67484">
        <ele>223</ele>
        <time>2012-05-27T09:11:57Z</time>
      </trkpt>
      <trkpt lat="45.46869" lon="0.67552">
        <ele>226</ele>
        <time>2012-05-27T09:12:13Z</time>
      </trkpt>
      <trkpt lat="45.46853" lon="0.67606">
        <ele>227</ele>
        <time>2012-05-27T09:12:26Z</time>
      </trkpt>
      <trkpt lat="45.46822" lon="0.6767">
        <ele>226</ele>
        <time>2012-05-27T09:12:35Z</time>
      </trkpt>
      <trkpt lat="45.46794" lon="0.67744">
        <ele>226</ele>
        <time>2012-05-27T09:12:45Z</time>
      </trkpt>
      <trkpt lat="45.46758" lon="0.67771">
        <ele>224</ele>
        <time>2012-05-27T09:12:56Z</time>
      </trkpt>
      <trkpt lat="45.46748" lon="0.67774">
        <ele>225</ele>
        <time>2012-05-27T09:12:58Z</time>
      </trkpt>
      <trkpt lat="45.46718" lon="0.67819">
        <ele>222</ele>
        <time>2012-05-27T09:13:06Z</time>
      </trkpt>
      <trkpt lat="45.46702" lon="0.67834">
        <ele>218</ele>
        <time>2012-05-27T09:13:09Z</time>
      </trkpt>
      <trkpt lat="45.46608" lon="0.6787">
        <ele>213</ele>
        <time>2012-05-27T09:13:22Z</time>
      </trkpt>
      <trkpt lat="45.46506" lon="0.67872">
        <ele>210</ele>
        <time>2012-05-27T09:13:36Z</time>
      </trkpt>
      <trkpt lat="45.46437" lon="0.6789">
        <ele>210</ele>
        <time>2012-05-27T09:13:46Z</time>
      </trkpt>
      <trkpt lat="45.46424" lon="0.67892">
        <ele>210</ele>
        <time>2012-05-27T09:13:55Z</time>
      </trkpt>
      <trkpt lat="45.46422" lon="0.67893">
        <ele>210</ele>
        <time>2012-05-27T09:15:56Z</time>
      </trkpt>
      <trkpt lat="45.46415" lon="0.6789">
        <ele>209</ele>
        <time>2012-05-27T09:20:14Z</time>
      </trkpt>
      <trkpt lat="45.46415" lon="0.67893">
        <ele>209</ele>
        <time>2012-05-27T09:24:07Z</time>
      </trkpt>
      <trkpt lat="45.46413" lon="0.67892">
        <ele>209</ele>
        <time>2012-05-27T09:24:37Z</time>
      </trkpt>
      <trkpt lat="45.46408" lon="0.67887">
        <ele>209</ele>
        <time>2012-05-27T09:27:40Z</time>
      </trkpt>
      <trkpt lat="45.46404" lon="0.67868">
        <ele>210</ele>
        <time>2012-05-27T09:28:03Z</time>
      </trkpt>
      <trkpt lat="45.46416" lon="0.6787">
        <ele>210</ele>
        <time>2012-05-27T09:28:25Z</time>
      </trkpt>
      <trkpt lat="45.46404" lon="0.67878">
        <ele>209</ele>
        <time>2012-05-27T09:28:48Z</time>
      </trkpt>
      <trkpt lat="45.46404" lon="0.67888">
        <ele>209</ele>
        <time>2012-05-27T09:29:04Z</time>
      </trkpt>
      <trkpt lat="45.46411" lon="0.67897">
        <ele>209</ele>
        <time>2012-05-27T09:29:28Z</time>
      </trkpt>
      <trkpt lat="45.46409" lon="0.67888">
        <ele>209</ele>
        <time>2012-05-27T09:30:12Z</time>
      </trkpt>
      <trkpt lat="45.46409" lon="0.67888">
        <ele>209</ele>
        <time>2012-05-27T09:31:05Z</time>
      </trkpt>
      <trkpt lat="45.46407" lon="0.67887">
        <ele>209</ele>
        <time>2012-05-27T09:42:18Z</time>
      </trkpt>
      <trkpt lat="45.46415" lon="0.67887">
        <ele>209</ele>
        <time>2012-05-27T09:43:06Z</time>
      </trkpt>
      <trkpt lat="45.46413" lon="0.67886">
        <ele>209</ele>
        <time>2012-05-27T09:43:22Z</time>
      </trkpt>
      <trkpt lat="45.4641" lon="0.67889">
        <ele>209</ele>
        <time>2012-05-27T09:43:29Z</time>
      </trkpt>
      <trkpt lat="45.46428" lon="0.67891">
        <ele>210</ele>
        <time>2012-05-27T09:43:37Z</time>
      </trkpt>
      <trkpt lat="45.46474" lon="0.67875">
        <ele>210</ele>
        <time>2012-05-27T09:43:51Z</time>
      </trkpt>
      <trkpt lat="45.46532" lon="0.67874">
        <ele>210</ele>
        <time>2012-05-27T09:44:10Z</time>
      </trkpt>
      <trkpt lat="45.46587" lon="0.67875">
        <ele>212</ele>
        <time>2012-05-27T09:44:29Z</time>
      </trkpt>
      <trkpt lat="45.46631" lon="0.67869">
        <ele>214</ele>
        <time>2012-05-27T09:44:42Z</time>
      </trkpt>
      <trkpt lat="45.46683" lon="0.67853">
        <ele>218</ele>
        <time>2012-05-27T09:45:02Z</time>
      </trkpt>
      <trkpt lat="45.4672" lon="0.67838">
        <ele>218</ele>
        <time>2012-05-27T09:45:16Z</time>
      </trkpt>
      <trkpt lat="45.46765" lon="0.67817">
        <ele>222</ele>
        <time>2012-05-27T09:45:31Z</time>
      </trkpt>
      <trkpt lat="45.46792" lon="0.67802">
        <ele>223</ele>
        <time>2012-05-27T09:45:41Z</time>
      </trkpt>
      <trkpt lat="45.46836" lon="0.67778">
        <ele>223</ele>
        <time>2012-05-27T09:45:55Z</time>
      </trkpt>
      <trkpt lat="45.46855" lon="0.6777">
        <ele>223</ele>
        <time>2012-05-27T09:46:01Z</time>
      </trkpt>
      <trkpt lat="45.469" lon="0.67757">
        <ele>224</ele>
        <time>2012-05-27T09:46:14Z</time>
      </trkpt>
      <trkpt lat="45.46953" lon="0.67766">
        <ele>224</ele>
        <time>2012-05-27T09:46:29Z</time>
      </trkpt>
      <trkpt lat="45.46998" lon="0.67777">
        <ele>224</ele>
        <time>2012-05-27T09:46:41Z</time>
      </trkpt>
      <trkpt lat="45.47052" lon="0.67792">
        <ele>224</ele>
        <time>2012-05-27T09:46:56Z</time>
      </trkpt>
      <trkpt lat="45.47056" lon="0.67793">
        <ele>224</ele>
        <time>2012-05-27T09:46:57Z</time>
      </trkpt>
      <trkpt lat="45.47124" lon="0.67808">
        <ele>223</ele>
        <time>2012-05-27T09:47:14Z</time>
      </trkpt>
      <trkpt lat="45.47176" lon="0.67816">
        <ele>223</ele>
        <time>2012-05-27T09:47:26Z</time>
      </trkpt>
      <trkpt lat="45.47232" lon="0.6783">
        <ele>224</ele>
        <time>2012-05-27T09:47:40Z</time>
      </trkpt>
      <trkpt lat="45.47279" lon="0.67844">
        <ele>225</ele>
        <time>2012-05-27T09:47:52Z</time>
      </trkpt>
      <trkpt lat="45.47345" lon="0.67859">
        <ele>227</ele>
        <time>2012-05-27T09:48:08Z</time>
      </trkpt>
      <trkpt lat="45.47389" lon="0.67873">
        <ele>227</ele>
        <time>2012-05-27T09:48:20Z</time>
      </trkpt>
      <trkpt lat="45.47423" lon="0.67876">
        <ele>227</ele>
        <time>2012-05-27T09:48:28Z</time>
      </trkpt>
      <trkpt lat="45.47444" lon="0.67873">
        <ele>227</ele>
        <time>2012-05-27T09:48:32Z</time>
      </trkpt>
      <trkpt lat="45.47465" lon="0.67868">
        <ele>226</ele>
        <time>2012-05-27T09:48:36Z</time>
      </trkpt>
      <trkpt lat="45.47554" lon="0.67844">
        <ele>227</ele>
        <time>2012-05-27T09:48:54Z</time>
      </trkpt>
      <trkpt lat="45.47578" lon="0.67839">
        <ele>227</ele>
        <time>2012-05-27T09:48:59Z</time>
      </trkpt>
      <trkpt lat="45.47657" lon="0.67817">
        <ele>228</ele>
        <time>2012-05-27T09:49:17Z</time>
      </trkpt>
      <trkpt lat="45.47744" lon="0.67819">
        <ele>230</ele>
        <time>2012-05-27T09:49:37Z</time>
      </trkpt>
      <trkpt lat="45.47832" lon="0.67819">
        <ele>232</ele>
        <time>2012-05-27T09:49:57Z</time>
      </trkpt>
      <trkpt lat="45.47874" lon="0.67823">
        <ele>232</ele>
        <time>2012-05-27T09:50:07Z</time>
      </trkpt>
      <trkpt lat="45.47936" lon="0.67823">
        <ele>233</ele>
        <time>2012-05-27T09:50:21Z</time>
      </trkpt>
      <trkpt lat="45.48027" lon="0.67835">
        <ele>233</ele>
        <time>2012-05-27T09:50:43Z</time>
      </trkpt>
      <trkpt lat="45.48054" lon="0.67899">
        <ele>234</ele>
        <time>2012-05-27T09:50:55Z</time>
      </trkpt>
      <trkpt lat="45.48056" lon="0.67905">
        <ele>234</ele>
        <time>2012-05-27T09:50:56Z</time>
      </trkpt>
      <trkpt lat="45.48093" lon="0.68013">
        <ele>236</ele>
        <time>2012-05-27T09:51:15Z</time>
      </trkpt>
      <trkpt lat="45.4813" lon="0.68124">
        <ele>238</ele>
        <time>2012-05-27T09:51:34Z</time>
      </trkpt>
      <trkpt lat="45.48156" lon="0.68205">
        <ele>240</ele>
        <time>2012-05-27T09:51:50Z</time>
      </trkpt>
      <trkpt lat="45.48156" lon="0.68212">
        <ele>240</ele>
        <time>2012-05-27T09:52:01Z</time>
      </trkpt>
      <trkpt lat="45.48169" lon="0.6823">
        <ele>241</ele>
        <time>2012-05-27T09:52:13Z</time>
      </trkpt>
      <trkpt lat="45.4822" lon="0.68294">
        <ele>242</ele>
        <time>2012-05-27T09:52:29Z</time>
      </trkpt>
      <trkpt lat="45.483" lon="0.68398">
        <ele>244</ele>
        <time>2012-05-27T09:52:49Z</time>
      </trkpt>
      <trkpt lat="45.48388" lon="0.68517">
        <ele>243</ele>
        <time>2012-05-27T09:53:03Z</time>
      </trkpt>
      <trkpt lat="45.48475" lon="0.68583">
        <ele>244</ele>
        <time>2012-05-27T09:53:14Z</time>
      </trkpt>
      <trkpt lat="45.48533" lon="0.68637">
        <ele>244</ele>
        <time>2012-05-27T09:53:23Z</time>
      </trkpt>
      <trkpt lat="45.48548" lon="0.68673">
        <ele>243</ele>
        <time>2012-05-27T09:53:27Z</time>
      </trkpt>
      <trkpt lat="45.48561" lon="0.68818">
        <ele>243</ele>
        <time>2012-05-27T09:53:41Z</time>
      </trkpt>
      <trkpt lat="45.48542" lon="0.68957">
        <ele>242</ele>
        <time>2012-05-27T09:53:56Z</time>
      </trkpt>
      <trkpt lat="45.48527" lon="0.69036">
        <ele>242</ele>
        <time>2012-05-27T09:54:11Z</time>
      </trkpt>
      <trkpt lat="45.48523" lon="0.69044">
        <ele>241</ele>
        <time>2012-05-27T09:54:24Z</time>
      </trkpt>
      <trkpt lat="45.48522" lon="0.69042">
        <ele>241</ele>
        <time>2012-05-27T09:54:45Z</time>
      </trkpt>
      <trkpt lat="45.48522" lon="0.69042">
        <ele>241</ele>
        <time>2012-05-27T09:55:31Z</time>
      </trkpt>
      <trkpt lat="45.48522" lon="0.69042">
        <ele>241</ele>
        <time>2012-05-27T09:56:24Z</time>
      </trkpt>
    </trkseg>
  </trk>
</gpx>